Observation data for Lake McClellan 2NW on 05/25/2020      Previous  Date  Next       Current Mesonet Observations  Soil Data  Daily Summary Page  Observations in Plain Language
KMC5 250500Z 09024G32KT 15/12 A2977 RMK A01 T01460120  RH  085%=      5-min Rain = 0
KMC5 250501Z 09025G30KT 15/12 A2978 RMK A01 T01450120  RH  085%=      5-min Rain = 0
KMC5 250502Z 09025G30KT 15/12 A2978 RMK A01 T01450120  RH  085%=      5-min Rain = 0
KMC5 250503Z 09024KT 14/12 A2978 RMK A01 T01440120  RH  086%=      5-min Rain = 0
KMC5 250504Z 09024G31KT 14/12 A2978 RMK A01 T01440121  RH  086%=      5-min Rain = 0
KMC5 250505Z 09025G30KT 14/12 A2978 RMK A01 T01430120  RH  086%=      5-min Rain = 0
KMC5 250506Z 09021G27KT 14/12 A2979 RMK A01 T01430121  RH  087%=      5-min Rain = 0
KMC5 250507Z 09021G26KT 14/12 A2979 RMK A01 T01430122  RH  087%=      5-min Rain = 0
KMC5 250508Z 09022G28KT 14/12 A2979 RMK A01 T01420121  RH  087%=      5-min Rain = 0
KMC5 250509Z 09019KT 14/12 A2979 RMK A01 T01420122  RH  087%=      5-min Rain = 0
KMC5 250510Z 09023G28KT 14/12 A2979 RMK A01 T01420122  RH  088%=      5-min Rain = 0
KMC5 250511Z 09020G26KT 14/12 A2979 RMK A01 T01420122  RH  088%=      5-min Rain = 0
KMC5 250512Z 08022G29KT 14/12 A2979 RMK A01 T01420122  RH  088%=      5-min Rain = 0
KMC5 250513Z 08025G32KT 14/12 A2979 RMK A01 T01420123  RH  088%=      5-min Rain = 0
KMC5 250514Z 09024G31KT 14/12 A2979 RMK A01 T01420122  RH  088%=      5-min Rain = 0
KMC5 250515Z 09027KT 14/12 A2979 RMK A01 T01420122  RH  088%=      5-min Rain = 0
KMC5 250516Z 09026KT 14/12 A2979 RMK A01 T01420122  RH  088%=      5-min Rain = 0
KMC5 250517Z 09028G36KT 14/12 A2979 RMK A01 T01430123  RH  088%=      5-min Rain = 0
KMC5 250518Z 08024KT 14/12 A2979 RMK A01 T01430123  RH  088%=      5-min Rain = 0
KMC5 250519Z 09027G33KT 14/12 A2979 RMK A01 T01430123  RH  088%=      5-min Rain = 0
KMC5 250520Z 08024G30KT 14/12 A2979 RMK A01 T01430122  RH  088%=      5-min Rain = 0
KMC5 250521Z 09026G32KT 14/12 A298 RMK A01 T01430123  RH  088%=      5-min Rain = 0
KMC5 250522Z 09025G31KT 14/12 A298 RMK A01 T01430123  RH  088%=      5-min Rain = 0
KMC5 250523Z 08023G30KT 14/12 A298 RMK A01 T01430123  RH  088%=      5-min Rain = 0
KMC5 250524Z 08027KT 14/12 A298 RMK A01 T01430123  RH  088%=      5-min Rain = 0
KMC5 250525Z 08024G29KT 14/12 A2981 RMK A01 T01430123  RH  088%=      5-min Rain = 0
KMC5 250526Z 08024G29KT 14/12 A2981 RMK A01 T01420123  RH  088%=      5-min Rain = 0
KMC5 250527Z 08024KT 14/12 A2981 RMK A01 T01420124  RH  088%=      5-min Rain = 0
KMC5 250528Z 08022KT 14/12 A2981 RMK A01 T01420124  RH  089%=      5-min Rain = 0
KMC5 250529Z 09025G32KT 14/12 A2981 RMK A01 T01420124  RH  089%=      5-min Rain = 0
KMC5 250530Z 09023G30KT 14/12 A2981 RMK A01 T01410124  RH  089%=      5-min Rain = 0
KMC5 250531Z 08023KT 14/12 A2981 RMK A01 T01410124  RH  089%=      5-min Rain = 0
KMC5 250532Z 08023G29KT 14/12 A2982 RMK A01 T01410123  RH  089%=      5-min Rain = 0
KMC5 250533Z 08026G31KT 14/12 A2982 RMK A01 T01410123  RH  089%=      5-min Rain = 0
KMC5 250534Z 08024G29KT 14/12 A2982 RMK A01 T01410123  RH  089%=      5-min Rain = 0
KMC5 250535Z 08023G30KT 14/12 A2982 RMK A01 T01420123  RH  089%=      5-min Rain = 0
KMC5 250536Z 09019KT 14/12 A2982 RMK A01 T01420124  RH  089%=      5-min Rain = 0
KMC5 250537Z 08017G23KT 14/12 A2982 RMK A01 T01410124  RH  089%=      5-min Rain = 0
KMC5 250538Z 09024G29KT 14/12 A2981 RMK A01 T01410124  RH  089%=      5-min Rain = 0
KMC5 250539Z 09024G32KT 14/12 A2981 RMK A01 T01410123  RH  089%=      5-min Rain = 0
KMC5 250540Z 08024G30KT 14/12 A2981 RMK A01 T01410123  RH  089%=      5-min Rain = 0
KMC5 250541Z 08025G30KT 14/12 A2981 RMK A01 T01410123  RH  089%=      5-min Rain = 0
KMC5 250542Z 08024KT 14/12 A2981 RMK A01 T01410123  RH  089%=      5-min Rain = 0
KMC5 250543Z 08027KT 14/12 A2981 RMK A01 T01410123  RH  089%=      5-min Rain = 0
KMC5 250544Z 08025G30KT 14/12 A2981 RMK A01 T01410123  RH  089%=      5-min Rain = 0
KMC5 250545Z 07026G33KT 14/12 A2981 RMK A01 T01410123  RH  089%=      5-min Rain = 0
KMC5 250546Z 08025G32KT 14/12 A298 RMK A01 T01410124  RH  089%=      5-min Rain = 0
KMC5 250547Z 08026KT 14/12 A298 RMK A01 T01410124  RH  089%=      5-min Rain = 0
KMC5 250548Z 08025G31KT 14/12 A298 RMK A01 T01410124  RH  090%=      5-min Rain = 0
KMC5 250549Z 07026KT 14/12 A298 RMK A01 T01400124  RH  090%=      5-min Rain = 0
KMC5 250550Z 07024KT 14/12 A298 RMK A01 T01400124  RH  090%=      5-min Rain = 0
KMC5 250551Z 08025G32KT 14/12 A298 RMK A01 T01390124  RH  091%=      5-min Rain = 0
KMC5 250552Z 08025G30KT 14/12 A2979 RMK A01 T01390124  RH  091%=      5-min Rain = 0
KMC5 250553Z 08022KT 14/12 A298 RMK A01 T01390124  RH  091%=      5-min Rain = 0
KMC5 250554Z 08023G29KT 14/13 A2979 RMK A01 T01390125  RH  091%=      5-min Rain = 0
KMC5 250555Z 08023KT 14/13 A2979 RMK A01 T01380125  RH  091%=      5-min Rain = 0
KMC5 250556Z 08021G26KT 14/13 A298 RMK A01 T01380125  RH  092%=      5-min Rain = 0
KMC5 250557Z 08024G29KT 14/13 A298 RMK A01 T01380125  RH  092%=      5-min Rain = 0
KMC5 250558Z 08024G29KT 14/13 A298 RMK A01 T01380125  RH  092%=      5-min Rain = 0
KMC5 250559Z 08022G30KT 14/13 A298 RMK A01 T01380125  RH  092%=      5-min Rain = 0
KMC5 250600Z 08020G25KT 14/13 A298 RMK A01 T01380125  RH  092%=      5-min Rain = 0
KMC5 250601Z 08018G23KT 14/13 A2981 RMK A01 T01380125  RH  092%=      5-min Rain = 0
KMC5 250602Z 08022G28KT 14/13 A2981 RMK A01 T01380125  RH  092%=      5-min Rain = 0
KMC5 250603Z 07020G27KT 14/13 A2981 RMK A01 T01380125  RH  092%=      5-min Rain = 0
KMC5 250604Z 07019G24KT 14/12 A2981 RMK A01 T01380124  RH  092%=      5-min Rain = 0
KMC5 250605Z 07020KT 14/13 A2981 RMK A01 T01380125  RH  092%=      5-min Rain = 0
KMC5 250606Z 07021G26KT 14/13 A298 RMK A01 T01380125  RH  092%=      5-min Rain = 0
KMC5 250607Z 07022KT 14/13 A298 RMK A01 T01380125  RH  092%=      5-min Rain = 0
KMC5 250608Z 07025G32KT 14/12 A298 RMK A01 T01380124  RH  092%=      5-min Rain = 0
KMC5 250609Z 07023KT 14/12 A298 RMK A01 T01380124  RH  091%=      5-min Rain = 0
KMC5 250610Z 07025G30KT 14/12 A298 RMK A01 T01380124  RH  091%=      5-min Rain = 0
KMC5 250611Z 07023G30KT 14/12 A298 RMK A01 T01380124  RH  091%=      5-min Rain = 0
KMC5 250612Z 07025KT 14/12 A298 RMK A01 T01380124  RH  091%=      5-min Rain = 0
KMC5 250613Z 06021KT 14/13 A2981 RMK A01 T01380125  RH  091%=      5-min Rain = 0
KMC5 250614Z 07024G29KT 14/13 A298 RMK A01 T01380125  RH  091%=      5-min Rain = 0
KMC5 250615Z 07023G28KT 14/13 A298 RMK A01 T01380125  RH  091%=      5-min Rain = 0
KMC5 250616Z 07022KT 14/13 A2981 RMK A01 T01390125  RH  092%=      5-min Rain = 0
KMC5 250617Z 07020G26KT 14/13 A2981 RMK A01 T01380125  RH  092%=      5-min Rain = 0
KMC5 250618Z 07022KT 14/13 A2981 RMK A01 T01380125  RH  092%=      5-min Rain = 0
KMC5 250619Z 07017G23KT 14/13 A2981 RMK A01 T01390125  RH  092%=      5-min Rain = 0
KMC5 250620Z 08019KT 14/13 A2981 RMK A01 T01390125  RH  092%=      5-min Rain = 0
KMC5 250621Z 08021G29KT 14/13 A2981 RMK A01 T01380125  RH  092%=      5-min Rain = 0
KMC5 250622Z 08017KT 14/12 A2982 RMK A01 T01380124  RH  091%=      5-min Rain = 0
KMC5 250623Z 08020G26KT 14/13 A2982 RMK A01 T01380125  RH  091%=      5-min Rain = 0
KMC5 250624Z 07020G26KT 14/13 A2982 RMK A01 T01390125  RH  091%=      5-min Rain = 0
KMC5 250625Z 07019G24KT 14/13 A2982 RMK A01 T01390125  RH  091%=      5-min Rain = 0
KMC5 250626Z 08019G25KT 14/13 A2981 RMK A01 T01390125  RH  091%=      5-min Rain = 0
KMC5 250627Z 07022KT 14/13 A2981 RMK A01 T01390125  RH  091%=      5-min Rain = 0
KMC5 250628Z 08021KT 14/13 A2981 RMK A01 T01390125  RH  091%=      5-min Rain = 0
KMC5 250629Z 07019KT 14/13 A2981 RMK A01 T01390125  RH  091%=      5-min Rain = 0
KMC5 250630Z 07021G28KT 14/13 A2981 RMK A01 T01390126  RH  092%=      5-min Rain = 0
KMC5 250631Z 08025G30KT 14/13 A2981 RMK A01 T01380125  RH  092%=      5-min Rain = 0
KMC5 250632Z 07024G29KT 14/13 A298 RMK A01 T01380125  RH  091%=      5-min Rain = 0
KMC5 250633Z 07021G26KT 14/12 A298 RMK A01 T01380124  RH  091%=      5-min Rain = 0
KMC5 250634Z 07022KT 14/13 A298 RMK A01 T01380125  RH  092%=      5-min Rain = 0
KMC5 250635Z 08018G23KT 14/13 A298 RMK A01 T01380125  RH  092%=      5-min Rain = 0
KMC5 250636Z 07022KT 14/13 A298 RMK A01 T01390125  RH  092%=      5-min Rain = 0
KMC5 250637Z 08021G26KT 14/12 A298 RMK A01 T01390124  RH  091%=      5-min Rain = 0
KMC5 250638Z 08020G28KT 14/12 A298 RMK A01 T01390124  RH  090%=      5-min Rain = 0
KMC5 250639Z 08020G25KT 14/12 A2981 RMK A01 T01400123  RH  090%=      5-min Rain = 0
KMC5 250640Z 08018G23KT 14/12 A2981 RMK A01 T01410123  RH  089%=      5-min Rain = 0
KMC5 250641Z 08013G19KT 14/12 A2982 RMK A01 T01410123  RH  089%=      5-min Rain = 0
KMC5 250642Z 09009KT 14/12 A2982 RMK A01 T01410124  RH  090%=      5-min Rain = 0
KMC5 250643Z 09010KT 14/12 A2983 RMK A01 T01410124  RH  090%=      5-min Rain = 0
KMC5 250644Z 09009KT 14/12 A2983 RMK A01 T01400123  RH  090%=      5-min Rain = 0
KMC5 250645Z 11006KT 14/12 A2984 RMK A01 T01400123  RH  089%=      5-min Rain = 0
KMC5 250646Z 13004KT 14/12 A2984 RMK A01 T01410122  RH  089%=      5-min Rain = 0
KMC5 250647Z 13009KT 14/12 A2984 RMK A01 T01410122  RH  088%=      5-min Rain = 0
KMC5 250648Z 18007KT 14/12 A2984 RMK A01 T01420121  RH  087%=      5-min Rain = 0
KMC5 250649Z 18008KT 14/12 A2984 RMK A01 T01430121  RH  086%=      5-min Rain = 0
KMC5 250650Z 20010KT 14/12 A2984 RMK A01 T01440121  RH  086%=      5-min Rain = 0
KMC5 250651Z 21010KT 14/12 A2984 RMK A01 T01440122  RH  086%=      5-min Rain = 0
KMC5 250652Z 21010KT 14/12 A2984 RMK A01 T01440122  RH  087%=      5-min Rain = 0
KMC5 250653Z 21011KT 14/12 A2984 RMK A01 T01440122  RH  087%=      5-min Rain = 0
KMC5 250654Z 21011KT 14/12 A2985 RMK A01 T01440122  RH  087%=      5-min Rain = 0
KMC5 250655Z 20010KT 14/12 A2985 RMK A01 T01440122  RH  087%=      5-min Rain = 0
KMC5 250656Z 18009KT 14/12 A2985 RMK A01 T01440122  RH  086%=      5-min Rain = 0
KMC5 250657Z 20009KT 15/12 A2985 RMK A01 T01450120  RH  085%=      5-min Rain = 0
KMC5 250658Z 16008KT 15/12 A2986 RMK A01 T01460119  RH  084%=      5-min Rain = 0
KMC5 250659Z 13003KT 15/12 A2985 RMK A01 T01470118  RH  083%=      5-min Rain = 0
KMC5 250700Z 12007KT 15/12 A2985 RMK A01 T01480118  RH  082%=      5-min Rain = 0
KMC5 250701Z 10009KT 15/12 A2985 RMK A01 T01480119  RH  083%=      5-min Rain = 0
KMC5 250702Z 09010KT 15/12 A2985 RMK A01 T01470120  RH  083%=      5-min Rain = 0
KMC5 250703Z 10011KT 15/12 A2984 RMK A01 T01470118  RH  083%=      5-min Rain = 0
KMC5 250704Z 08011KT 15/12 A2984 RMK A01 T01480117  RH  082%=      5-min Rain = 0
KMC5 250705Z 10010KT 15/12 A2984 RMK A01 T01480118  RH  082%=      5-min Rain = 0
KMC5 250706Z 10008G13KT 15/12 A2984 RMK A01 T01490117  RH  081%=      5-min Rain = 0
KMC5 250707Z 12012KT 15/11 A2985 RMK A01 T01500113  RH  079%=      5-min Rain = 0
KMC5 250708Z 10011KT 15/11 A2985 RMK A01 T01530113  RH  077%=      5-min Rain = 0
KMC5 250709Z 12015G20KT 16/11 A2985 RMK A01 T01550112  RH  076%=      5-min Rain = 0
KMC5 250710Z 14016KT 16/11 A2986 RMK A01 T01560114  RH  076%=      5-min Rain = 0
KMC5 250711Z 15012KT 16/12 A2986 RMK A01 T01550116  RH  077%=      5-min Rain = 0
KMC5 250712Z 20007KT 15/12 A2986 RMK A01 T01530117  RH  079%=      5-min Rain = 0
KMC5 250713Z 21006KT 15/12 A2986 RMK A01 T01520118  RH  081%=      5-min Rain = 0
KMC5 250714Z 21008KT 15/12 A2987 RMK A01 T01500119  RH  082%=      5-min Rain = 0
KMC5 250715Z 22010KT 15/12 A2987 RMK A01 T01490119  RH  082%=      5-min Rain = 0
KMC5 250716Z 23009KT 15/12 A2988 RMK A01 T01490118  RH  082%=      5-min Rain = 0
KMC5 250717Z 22013KT 15/12 A2988 RMK A01 T01490118  RH  081%=      5-min Rain = 0
KMC5 250718Z 23009KT 15/12 A2988 RMK A01 T01490119  RH  082%=      5-min Rain = 0
KMC5 250719Z 24010KT 15/12 A2989 RMK A01 T01490120  RH  083%=      5-min Rain = 0
KMC5 250720Z 25011KT 15/12 A2989 RMK A01 T01480120  RH  083%=      5-min Rain = 0
KMC5 250721Z 26010KT 15/12 A2989 RMK A01 T01470120  RH  084%=      5-min Rain = 0
KMC5 250722Z 27009KT 15/12 A299 RMK A01 T01470121  RH  084%=      5-min Rain = 0
KMC5 250723Z 27010KT 15/12 A299 RMK A01 T01470121  RH  084%=      5-min Rain = 0
KMC5 250724Z 28011KT 15/12 A299 RMK A01 T01470120  RH  084%=      5-min Rain = 0
KMC5 250725Z 28010KT 15/12 A299 RMK A01 T01470120  RH  084%=      5-min Rain = 0
KMC5 250726Z 27011KT 15/12 A299 RMK A01 T01470120  RH  084%=      5-min Rain = 0
KMC5 250727Z 27013KT 15/12 A2991 RMK A01 T01470120  RH  084%=      5-min Rain = 0
KMC5 250728Z 27013KT 15/12 A2991 RMK A01 T01470120  RH  084%=      5-min Rain = 0
KMC5 250729Z 27016KT 15/12 A2991 RMK A01 T01480120  RH  084%=      5-min Rain = 0
KMC5 250730Z 27017KT 15/12 A2992 RMK A01 T01480121  RH  084%=      5-min Rain = 0
KMC5 250731Z 27018KT 15/12 A2992 RMK A01 T01470123  RH  085%=      5-min Rain = 0
KMC5 250732Z 27017KT 15/12 A2992 RMK A01 T01460124  RH  087%=      5-min Rain = 0
KMC5 250733Z 27016KT 15/12 A2992 RMK A01 T01450124  RH  087%=      5-min Rain = 0
KMC5 250734Z 27017KT 15/13 A2992 RMK A01 T01450125  RH  088%=      5-min Rain = 0
KMC5 250735Z 27016KT 14/13 A2992 RMK A01 T01440125  RH  088%=      5-min Rain = 0
KMC5 250736Z 27015KT 14/13 A2992 RMK A01 T01440125  RH  089%=      5-min Rain = 0
KMC5 250737Z 28014KT 14/13 A2992 RMK A01 T01430125  RH  089%=      5-min Rain = 0
KMC5 250738Z 28016KT 14/13 A2992 RMK A01 T01430126  RH  089%=      5-min Rain = 0
KMC5 250739Z 28015KT 14/13 A2992 RMK A01 T01430125  RH  089%=      5-min Rain = 0
KMC5 250740Z 28015KT 14/13 A2992 RMK A01 T01430126  RH  089%=      5-min Rain = 0
KMC5 250741Z 28018KT 14/13 A2992 RMK A01 T01430126  RH  090%=      5-min Rain = 0
KMC5 250742Z 28016KT 14/13 A2992 RMK A01 T01430126  RH  090%=      5-min Rain = 0
KMC5 250743Z 28016KT 14/13 A2992 RMK A01 T01430127  RH  090%=      5-min Rain = 0
KMC5 250744Z 28016KT 14/13 A2992 RMK A01 T01430126  RH  090%=      5-min Rain = 0
KMC5 250745Z 28014KT 14/13 A2992 RMK A01 T01430127  RH  090%=      5-min Rain = 0
KMC5 250746Z 28014KT 14/13 A2992 RMK A01 T01430126  RH  090%=      5-min Rain = 0
KMC5 250747Z 28013KT 14/13 A2991 RMK A01 T01430127  RH  090%=      5-min Rain = 0
KMC5 250748Z 29013KT 14/13 A2991 RMK A01 T01440127  RH  090%=      5-min Rain = 0
KMC5 250749Z 29013KT 14/13 A2991 RMK A01 T01440127  RH  090%=      5-min Rain = 0
KMC5 250750Z 29015KT 14/13 A2991 RMK A01 T01440127  RH  090%=      5-min Rain = 0
KMC5 250751Z 29013KT 14/13 A2991 RMK A01 T01430127  RH  090%=      5-min Rain = 0
KMC5 250752Z 29013KT 14/13 A2991 RMK A01 T01430127  RH  090%=      5-min Rain = 0
KMC5 250753Z 29012KT 14/13 A2991 RMK A01 T01440127  RH  090%=      5-min Rain = 0
KMC5 250754Z 29012KT 14/13 A2991 RMK A01 T01430127  RH  090%=      5-min Rain = 0
KMC5 250755Z 29013KT 14/13 A299 RMK A01 T01430126  RH  090%=      5-min Rain = 0
KMC5 250756Z 29010KT 14/13 A2991 RMK A01 T01430127  RH  090%=      5-min Rain = 0
KMC5 250757Z 29010KT 14/13 A2991 RMK A01 T01430127  RH  090%=      5-min Rain = 0
KMC5 250758Z 28012KT 14/13 A2991 RMK A01 T01430127  RH  090%=      5-min Rain = 0
KMC5 250759Z 29013KT 14/13 A299 RMK A01 T01430127  RH  090%=      5-min Rain = 0
KMC5 250800Z 29012KT 14/13 A299 RMK A01 T01430127  RH  090%=      5-min Rain = 0
KMC5 250801Z 29013KT 14/13 A299 RMK A01 T01430127  RH  090%=      5-min Rain = 0
KMC5 250802Z 30013KT 14/13 A299 RMK A01 T01430127  RH  090%=      5-min Rain = 0
KMC5 250803Z 30012KT 14/13 A299 RMK A01 T01430127  RH  090%=      5-min Rain = 0
KMC5 250804Z 30012KT 14/13 A299 RMK A01 T01420127  RH  091%=      5-min Rain = 0
KMC5 250805Z 30011KT 14/13 A299 RMK A01 T01420128  RH  091%=      5-min Rain = 0
KMC5 250806Z 30010KT 14/13 A299 RMK A01 T01420128  RH  091%=      5-min Rain = 0
KMC5 250807Z 30012KT 14/13 A299 RMK A01 T01420128  RH  091%=      5-min Rain = 0
KMC5 250808Z 30010KT 14/13 A299 RMK A01 T01420128  RH  091%=      5-min Rain = 0
KMC5 250809Z 30010KT 14/13 A2989 RMK A01 T01420128  RH  091%=      5-min Rain = 0
KMC5 250810Z 30010KT 14/13 A2989 RMK A01 T01420128  RH  091%=      5-min Rain = 0
KMC5 250811Z 30010KT 14/13 A2989 RMK A01 T01420128  RH  092%=      5-min Rain = 0
KMC5 250812Z 31010KT 14/13 A2989 RMK A01 T01420128  RH  092%=      5-min Rain = 0
KMC5 250813Z 31011KT 14/13 A2989 RMK A01 T01420128  RH  092%=      5-min Rain = 0
KMC5 250814Z 31009KT 14/13 A2989 RMK A01 T01410128  RH  092%=      5-min Rain = 0
KMC5 250815Z 31010KT 14/13 A2989 RMK A01 T01410128  RH  092%=      5-min Rain = 0
KMC5 250816Z 32010KT 14/13 A2989 RMK A01 T01410128  RH  092%=      5-min Rain = 0
KMC5 250817Z 32010KT 14/13 A2989 RMK A01 T01410128  RH  092%=      5-min Rain = 0
KMC5 250818Z 32009KT 14/13 A2989 RMK A01 T01410128  RH  092%=      5-min Rain = 0
KMC5 250819Z 32010KT 14/13 A2989 RMK A01 T01410128  RH  092%=      5-min Rain = 0
KMC5 250820Z 32010KT 14/13 A2988 RMK A01 T01410128  RH  092%=      5-min Rain = 0
KMC5 250821Z 32010KT 14/13 A2988 RMK A01 T01410128  RH  092%=      5-min Rain = 0
KMC5 250822Z 32010KT 14/13 A2988 RMK A01 T01410129  RH  092%=      5-min Rain = 0
KMC5 250823Z 32011KT 14/13 A2988 RMK A01 T01400128  RH  092%=      5-min Rain = 0
KMC5 250824Z 33011KT 14/13 A2988 RMK A01 T01400128  RH  092%=      5-min Rain = 0
KMC5 250825Z 33010KT 14/13 A2988 RMK A01 T01400128  RH  092%=      5-min Rain = 0
KMC5 250826Z 33011KT 14/13 A2988 RMK A01 T01410128  RH  092%=      5-min Rain = 0
KMC5 250827Z 33012KT 14/13 A2988 RMK A01 T01400128  RH  092%=      5-min Rain = 0
KMC5 250828Z 33012KT 14/13 A2988 RMK A01 T01400128  RH  092%=      5-min Rain = 0
KMC5 250829Z 33011KT 14/13 A2988 RMK A01 T01400128  RH  092%=      5-min Rain = 0
KMC5 250830Z 33012KT 14/13 A2988 RMK A01 T01400128  RH  092%=      5-min Rain = 0
KMC5 250831Z 33012KT 14/13 A2988 RMK A01 T01400128  RH  092%=      5-min Rain = 0
KMC5 250832Z 33012KT 14/13 A2988 RMK A01 T01400127  RH  092%=      5-min Rain = 0
KMC5 250833Z 32011KT 14/13 A2988 RMK A01 T01400127  RH  092%=      5-min Rain = 0
KMC5 250834Z 32012KT 14/13 A2988 RMK A01 T01400127  RH  092%=      5-min Rain = 0
KMC5 250835Z 32012KT 14/13 A2988 RMK A01 T01400127  RH  092%=      5-min Rain = 0
KMC5 250836Z 32013KT 14/13 A2988 RMK A01 T01400128  RH  092%=      5-min Rain = 0
KMC5 250837Z 32013KT 14/13 A2988 RMK A01 T01400128  RH  092%=      5-min Rain = 0
KMC5 250838Z 31013KT 14/13 A2988 RMK A01 T01400128  RH  092%=      5-min Rain = 0
KMC5 250839Z 32012KT 14/13 A2988 RMK A01 T01400128  RH  092%=      5-min Rain = 0
KMC5 250840Z 32012KT 14/13 A2988 RMK A01 T01400128  RH  093%=      5-min Rain = 0
KMC5 250841Z 32012KT 14/13 A2988 RMK A01 T01400128  RH  093%=      5-min Rain = 0
KMC5 250842Z 32012KT 14/13 A2988 RMK A01 T01400128  RH  093%=      5-min Rain = 0
KMC5 250843Z 32012KT 14/13 A2988 RMK A01 T01400128  RH  093%=      5-min Rain = 0
KMC5 250844Z 32013KT 14/13 A2988 RMK A01 T01400128  RH  093%=      5-min Rain = 0
KMC5 250845Z 32013KT 14/13 A2988 RMK A01 T01400128  RH  093%=      5-min Rain = 0
KMC5 250846Z 32014KT 14/13 A2988 RMK A01 T01400128  RH  093%=      5-min Rain = 0
KMC5 250847Z 32014KT 14/13 A2987 RMK A01 T01400128  RH  093%=      5-min Rain = 0
KMC5 250848Z 32013KT 14/13 A2987 RMK A01 T01400128  RH  093%=      5-min Rain = 0
KMC5 250849Z 32013KT 14/13 A2987 RMK A01 T01400128  RH  093%=      5-min Rain = 0
KMC5 250850Z 32016G21KT 14/13 A2987 RMK A01 T01400128  RH  093%=      5-min Rain = 0
KMC5 250851Z 33014KT 14/13 A2987 RMK A01 T01400128  RH  093%=      5-min Rain = 0
KMC5 250852Z 32015KT 14/13 A2987 RMK A01 T01400128  RH  093%=      5-min Rain = 0
KMC5 250853Z 32015KT 14/13 A2987 RMK A01 T01400128  RH  093%=      5-min Rain = 0
KMC5 250854Z 33014KT 14/13 A2987 RMK A01 T01400129  RH  093%=      5-min Rain = 0
KMC5 250855Z 32016KT 14/13 A2986 RMK A01 T01390128  RH  093%=      5-min Rain = 0
KMC5 250856Z 32016KT 14/13 A2986 RMK A01 T01390128  RH  093%=      5-min Rain = 0
KMC5 250857Z 32016KT 14/13 A2986 RMK A01 T01400128  RH  093%=      5-min Rain = 0
KMC5 250858Z 32018KT 14/13 A2986 RMK A01 T01390128  RH  093%=      5-min Rain = 0
KMC5 250859Z 32018KT 14/13 A2986 RMK A01 T01390127  RH  092%=      5-min Rain = 0
KMC5 250900Z 32018KT 14/13 A2986 RMK A01 T01390127  RH  092%=      5-min Rain = 0
KMC5 250901Z 32017KT 14/13 A2986 RMK A01 T01390127  RH  092%=      5-min Rain = 0
KMC5 250902Z 32019G24KT 14/13 A2986 RMK A01 T01390127  RH  092%=      5-min Rain = 0
KMC5 250903Z 32018KT 14/13 A2986 RMK A01 T01390127  RH  092%=      5-min Rain = 0
KMC5 250904Z 32017KT 14/13 A2986 RMK A01 T01390126  RH  092%=      5-min Rain = 0
KMC5 250905Z 32017KT 14/13 A2986 RMK A01 T01390126  RH  092%=      5-min Rain = 0
KMC5 250906Z 32017KT 14/13 A2986 RMK A01 T01400126  RH  092%=      5-min Rain = 0
KMC5 250907Z 32016KT 14/13 A2986 RMK A01 T01390126  RH  092%=      5-min Rain = 0
KMC5 250908Z 32018G23KT 14/13 A2986 RMK A01 T01390126  RH  092%=      5-min Rain = 0
KMC5 250909Z 32017KT 14/13 A2986 RMK A01 T01390126  RH  092%=      5-min Rain = 0
KMC5 250910Z 32015KT 14/13 A2986 RMK A01 T01390126  RH  092%=      5-min Rain = 0
KMC5 250911Z 32016KT 14/13 A2986 RMK A01 T01400126  RH  092%=      5-min Rain = 0
KMC5 250912Z 32017KT 14/13 A2986 RMK A01 T01390126  RH  092%=      5-min Rain = 0
KMC5 250913Z 32016G21KT 14/13 A2986 RMK A01 T01400126  RH  092%=      5-min Rain = 0
KMC5 250914Z 32015KT 14/13 A2986 RMK A01 T01400126  RH  092%=      5-min Rain = 0
KMC5 250915Z 32016KT 14/13 A2986 RMK A01 T01400127  RH  092%=      5-min Rain = 0
KMC5 250916Z 32017G22KT 14/13 A2987 RMK A01 T01400127  RH  092%=      5-min Rain = 0
KMC5 250917Z 33019KT 14/13 A2987 RMK A01 T01400126  RH  091%=      5-min Rain = 0
KMC5 250918Z 33019KT 14/13 A2987 RMK A01 T01400126  RH  091%=      5-min Rain = 0
KMC5 250919Z 33015KT 14/13 A2987 RMK A01 T01410126  RH  091%=      5-min Rain = 0
KMC5 250920Z 32016G21KT 14/13 A2987 RMK A01 T01410126  RH  091%=      5-min Rain = 0
KMC5 250921Z 33016G21KT 14/13 A2987 RMK A01 T01410126  RH  091%=      5-min Rain = 0
KMC5 250922Z 33017KT 14/13 A2987 RMK A01 T01410125  RH  090%=      5-min Rain = 0
KMC5 250923Z 32014KT 14/12 A2988 RMK A01 T01410124  RH  090%=      5-min Rain = 0
KMC5 250924Z 33017KT 14/12 A2988 RMK A01 T01410124  RH  089%=      5-min Rain = 0
KMC5 250925Z 33017KT 14/12 A2988 RMK A01 T01410122  RH  088%=      5-min Rain = 0
KMC5 250926Z 33015KT 14/12 A2988 RMK A01 T01410121  RH  088%=      5-min Rain = 0
KMC5 250927Z 32015G20KT 14/12 A2988 RMK A01 T01410121  RH  088%=      5-min Rain = 0
KMC5 250928Z 32018KT 14/12 A2988 RMK A01 T01410120  RH  087%=      5-min Rain = 0
KMC5 250929Z 32015G21KT 14/12 A2988 RMK A01 T01410120  RH  087%=      5-min Rain = 0
KMC5 250930Z 33017KT 14/12 A2988 RMK A01 T01410119  RH  087%=      5-min Rain = 0
KMC5 250931Z 33016KT 14/12 A2988 RMK A01 T01410117  RH  085%=      5-min Rain = 0
KMC5 250932Z 33019KT 14/11 A2988 RMK A01 T01410114  RH  084%=      5-min Rain = 0
KMC5 250933Z 32018KT 14/11 A2989 RMK A01 T01410110  RH  082%=      5-min Rain = 0
KMC5 250934Z 32017KT 14/11 A2989 RMK A01 T01400109  RH  081%=      5-min Rain = 0
KMC5 250935Z 32016KT 14/11 A2989 RMK A01 T01400107  RH  081%=      5-min Rain = 0
KMC5 250936Z 32015KT 14/10 A2989 RMK A01 T01390104  RH  080%=      5-min Rain = 0
KMC5 250937Z 32013KT 14/10 A2989 RMK A01 T01380104  RH  080%=      5-min Rain = 0
KMC5 250938Z 32017KT 14/10 A2989 RMK A01 T01370101  RH  079%=      5-min Rain = 0
KMC5 250939Z 32016KT 14/10 A2989 RMK A01 T01360098  RH  078%=      5-min Rain = 0
KMC5 250940Z 32015KT 14/10 A2989 RMK A01 T01360098  RH  078%=      5-min Rain = 0
KMC5 250941Z 32013KT 14/10 A2989 RMK A01 T01360098  RH  078%=      5-min Rain = 0
KMC5 250942Z 32015KT 14/10 A2989 RMK A01 T01350098  RH  078%=      5-min Rain = 0
KMC5 250943Z 32016KT 13/10 A2989 RMK A01 T01340096  RH  078%=      5-min Rain = 0
KMC5 250944Z 31017KT 13/10 A2989 RMK A01 T01340096  RH  078%=      5-min Rain = 0
KMC5 250945Z 32013KT 13/10 A2989 RMK A01 T01340096  RH  078%=      5-min Rain = 0
KMC5 250946Z 32015KT 13/10 A2989 RMK A01 T01340095  RH  078%=      5-min Rain = 0
KMC5 250947Z 31017KT 13/09 A2989 RMK A01 T01340094  RH  077%=      5-min Rain = 0
KMC5 250948Z 31017KT 13/09 A2989 RMK A01 T01330094  RH  077%=      5-min Rain = 0
KMC5 250949Z 31015KT 13/09 A2989 RMK A01 T01330094  RH  077%=      5-min Rain = 0
KMC5 250950Z 31015G21KT 13/10 A2989 RMK A01 T01330095  RH  078%=      5-min Rain = 0
KMC5 250951Z 32016G21KT 13/09 A2989 RMK A01 T01330093  RH  077%=      5-min Rain = 0
KMC5 250952Z 31016KT 13/09 A2989 RMK A01 T01320092  RH  077%=      5-min Rain = 0
KMC5 250953Z 32015KT 13/09 A2989 RMK A01 T01320093  RH  077%=      5-min Rain = 0
KMC5 250954Z 31014KT 13/09 A2989 RMK A01 T01320094  RH  078%=      5-min Rain = 0
KMC5 250955Z 31017G22KT 13/09 A2989 RMK A01 T01320093  RH  077%=      5-min Rain = 0
KMC5 250956Z 31014G19KT 13/09 A2989 RMK A01 T01320092  RH  077%=      5-min Rain = 0
KMC5 250957Z 31016G21KT 13/09 A2989 RMK A01 T01310093  RH  077%=      5-min Rain = 0
KMC5 250958Z 30015KT 13/09 A2989 RMK A01 T01310093  RH  078%=      5-min Rain = 0
KMC5 250959Z 31015KT 13/09 A2989 RMK A01 T01310093  RH  078%=      5-min Rain = 0
KMC5 251000Z 30015KT 13/09 A2988 RMK A01 T01310093  RH  078%=      5-min Rain = 0
KMC5 251001Z 31016KT 13/09 A2988 RMK A01 T01310093  RH  078%=      5-min Rain = 0
KMC5 251002Z 31016KT 13/09 A2988 RMK A01 T01310092  RH  077%=      5-min Rain = 0
KMC5 251003Z 31016KT 13/09 A2988 RMK A01 T01310092  RH  077%=      5-min Rain = 0
KMC5 251004Z 31016KT 13/09 A2988 RMK A01 T01310093  RH  078%=      5-min Rain = 0
KMC5 251005Z 31016KT 13/09 A2988 RMK A01 T01300091  RH  077%=      5-min Rain = 0
KMC5 251006Z 31015KT 13/09 A2988 RMK A01 T01300091  RH  077%=      5-min Rain = 0
KMC5 251007Z 31017G22KT 13/09 A2988 RMK A01 T01300091  RH  077%=      5-min Rain = 0
KMC5 251008Z 31017KT 13/09 A2988 RMK A01 T01300090  RH  076%=      5-min Rain = 0
KMC5 251009Z 31020G25KT 13/09 A2988 RMK A01 T01300089  RH  076%=      5-min Rain = 0
KMC5 251010Z 31018KT 13/09 A2988 RMK A01 T01310089  RH  076%=      5-min Rain = 0
KMC5 251011Z 31019KT 13/09 A2988 RMK A01 T01310088  RH  075%=      5-min Rain = 0
KMC5 251012Z 31015KT 13/09 A2989 RMK A01 T01310090  RH  076%=      5-min Rain = 0
KMC5 251013Z 32016KT 13/09 A2989 RMK A01 T01310090  RH  077%=      5-min Rain = 0
KMC5 251014Z 31015KT 13/09 A2989 RMK A01 T01300089  RH  076%=      5-min Rain = 0
KMC5 251015Z 31016KT 13/09 A2989 RMK A01 T01300090  RH  077%=      5-min Rain = 0
KMC5 251016Z 31015KT 13/09 A2989 RMK A01 T01300091  RH  077%=      5-min Rain = 0
KMC5 251017Z 31016KT 13/09 A299 RMK A01 T01300090  RH  077%=      5-min Rain = 0
KMC5 251018Z 31016KT 13/09 A299 RMK A01 T01300089  RH  076%=      5-min Rain = 0
KMC5 251019Z 32017G22KT 13/09 A299 RMK A01 T01300088  RH  076%=      5-min Rain = 0
KMC5 251020Z 32014KT 13/09 A299 RMK A01 T01300089  RH  076%=      5-min Rain = 0
KMC5 251021Z 32017G25KT 13/09 A2989 RMK A01 T01300089  RH  076%=      5-min Rain = 0
KMC5 251022Z 32016KT 13/09 A299 RMK A01 T01300088  RH  075%=      5-min Rain = 0
KMC5 251023Z 32016G21KT 13/09 A299 RMK A01 T01300089  RH  076%=      5-min Rain = 0
KMC5 251024Z 32017KT 13/09 A299 RMK A01 T01300089  RH  076%=      5-min Rain = 0
KMC5 251025Z 32015G20KT 13/09 A299 RMK A01 T01300089  RH  076%=      5-min Rain = 0
KMC5 251026Z 32016KT 13/09 A299 RMK A01 T01300088  RH  075%=      5-min Rain = 0
KMC5 251027Z 32017KT 13/09 A299 RMK A01 T01300088  RH  075%=      5-min Rain = 0
KMC5 251028Z 32016KT 13/09 A299 RMK A01 T01300088  RH  076%=      5-min Rain = 0
KMC5 251029Z 32015KT 13/09 A299 RMK A01 T01300088  RH  075%=      5-min Rain = 0
KMC5 251030Z 32018KT 13/09 A299 RMK A01 T01300088  RH  075%=      5-min Rain = 0
KMC5 251031Z 32016KT 13/09 A299 RMK A01 T01300087  RH  075%=      5-min Rain = 0
KMC5 251032Z 32014KT 13/09 A299 RMK A01 T01300088  RH  076%=      5-min Rain = 0
KMC5 251033Z 32016KT 13/09 A299 RMK A01 T01300088  RH  075%=      5-min Rain = 0
KMC5 251034Z 32017G23KT 13/09 A299 RMK A01 T01300089  RH  076%=      5-min Rain = 0
KMC5 251035Z 32017KT 13/09 A299 RMK A01 T01300088  RH  076%=      5-min Rain = 0
KMC5 251036Z 32016KT 13/09 A2989 RMK A01 T01300088  RH  076%=      5-min Rain = 0
KMC5 251037Z 32017KT 13/09 A2989 RMK A01 T01300088  RH  076%=      5-min Rain = 0
KMC5 251038Z 31021KT 13/09 A2989 RMK A01 T01300087  RH  075%=      5-min Rain = 0
KMC5 251039Z 31019G26KT 13/09 A2989 RMK A01 T01300088  RH  075%=      5-min Rain = 0
KMC5 251040Z 31018G24KT 13/09 A2989 RMK A01 T01300087  RH  075%=      5-min Rain = 0
KMC5 251041Z 31020G26KT 13/09 A2989 RMK A01 T01300088  RH  075%=      5-min Rain = 0
KMC5 251042Z 31021KT 13/09 A299 RMK A01 T01300087  RH  075%=      5-min Rain = 0
KMC5 251043Z 31018KT 13/09 A299 RMK A01 T01300088  RH  075%=      5-min Rain = 0
KMC5 251044Z 31018KT 13/09 A299 RMK A01 T01300088  RH  076%=      5-min Rain = 0
KMC5 251045Z 31019KT 13/09 A299 RMK A01 T01300088  RH  076%=      5-min Rain = 0
KMC5 251046Z 31017KT 13/09 A299 RMK A01 T01300088  RH  076%=      5-min Rain = 0
KMC5 251047Z 32014G19KT 13/09 A299 RMK A01 T01300089  RH  076%=      5-min Rain = 0
KMC5 251048Z 32012KT 13/09 A299 RMK A01 T01290090  RH  077%=      5-min Rain = 0
KMC5 251049Z 31015KT 13/09 A299 RMK A01 T01280090  RH  078%=      5-min Rain = 0
KMC5 251050Z 31013KT 13/09 A2991 RMK A01 T01280090  RH  078%=      5-min Rain = 0
KMC5 251051Z 32015KT 13/09 A2991 RMK A01 T01280090  RH  078%=      5-min Rain = 0
KMC5 251052Z 31014KT 13/09 A2991 RMK A01 T01280090  RH  078%=      5-min Rain = 0
KMC5 251053Z 32020KT 13/09 A2991 RMK A01 T01280090  RH  078%=      5-min Rain = 0
KMC5 251054Z 32018KT 13/09 A2991 RMK A01 T01270088  RH  077%=      5-min Rain = 0
KMC5 251055Z 31016KT 13/09 A2991 RMK A01 T01280089  RH  077%=      5-min Rain = 0
KMC5 251056Z 32017KT 13/09 A2991 RMK A01 T01280089  RH  077%=      5-min Rain = 0
KMC5 251057Z 32016KT 13/09 A2991 RMK A01 T01270089  RH  078%=      5-min Rain = 0
KMC5 251058Z 31016G22KT 13/09 A2991 RMK A01 T01280090  RH  078%=      5-min Rain = 0
KMC5 251059Z 32019KT 13/09 A2991 RMK A01 T01270089  RH  078%=      5-min Rain = 0
KMC5 251100Z 32019KT 13/09 A2991 RMK A01 T01270088  RH  077%=      5-min Rain = 0
KMC5 251101Z 32021KT 13/09 A2991 RMK A01 T01270089  RH  078%=      5-min Rain = 0
KMC5 251102Z 32018G24KT 13/09 A2991 RMK A01 T01270088  RH  077%=      5-min Rain = 0
KMC5 251103Z 32015KT 13/09 A2991 RMK A01 T01270090  RH  078%=      5-min Rain = 0
KMC5 251104Z 32019KT 13/09 A2991 RMK A01 T01260090  RH  078%=      5-min Rain = 0
KMC5 251105Z 32019G24KT 13/09 A2991 RMK A01 T01260089  RH  078%=      5-min Rain = 0
KMC5 251106Z 32019G24KT 13/09 A2991 RMK A01 T01260089  RH  078%=      5-min Rain = 0
KMC5 251107Z 32020KT 13/09 A2992 RMK A01 T01250089  RH  078%=      5-min Rain = 0
KMC5 251108Z 33019KT 13/09 A2992 RMK A01 T01250089  RH  078%=      5-min Rain = 0
KMC5 251109Z 32017KT 13/09 A2992 RMK A01 T01250089  RH  079%=      5-min Rain = 0
KMC5 251110Z 32018G24KT 12/09 A2992 RMK A01 T01240090  RH  079%=      5-min Rain = 0
KMC5 251111Z 33023KT 12/09 A2991 RMK A01 T01240088  RH  079%=      5-min Rain = 0
KMC5 251112Z 32023KT 12/09 A2992 RMK A01 T01240087  RH  078%=      5-min Rain = 0
KMC5 251113Z 33021KT 12/09 A2992 RMK A01 T01240088  RH  078%=      5-min Rain = 0
KMC5 251114Z 33017KT 12/09 A2992 RMK A01 T01240089  RH  079%=      5-min Rain = 0
KMC5 251115Z 32018KT 12/09 A2992 RMK A01 T01240089  RH  079%=      5-min Rain = 0
KMC5 251116Z 32017KT 12/09 A2992 RMK A01 T01230089  RH  079%=      5-min Rain = 0
KMC5 251117Z 32020KT 12/09 A2992 RMK A01 T01230089  RH  080%=      5-min Rain = 0
KMC5 251118Z 33019KT 12/09 A2992 RMK A01 T01230089  RH  079%=      5-min Rain = 0
KMC5 251119Z 33018KT 12/09 A2992 RMK A01 T01230089  RH  080%=      5-min Rain = 0
KMC5 251120Z 33019G24KT 12/09 A2992 RMK A01 T01240090  RH  080%=      5-min Rain = 0
KMC5 251121Z 33019KT 12/09 A2992 RMK A01 T01230090  RH  080%=      5-min Rain = 0
KMC5 251122Z 33019KT 12/09 A2992 RMK A01 T01230089  RH  080%=      5-min Rain = 0
KMC5 251123Z 33018KT 12/09 A2992 RMK A01 T01230090  RH  080%=      5-min Rain = 0
KMC5 251124Z 32017KT 12/09 A2992 RMK A01 T01230090  RH  081%=      5-min Rain = 0
KMC5 251125Z 32018KT 12/09 A2992 RMK A01 T01230090  RH  081%=      5-min Rain = 0
KMC5 251126Z 33016KT 12/09 A2992 RMK A01 T01230090  RH  080%=      5-min Rain = 0
KMC5 251127Z 33016KT 12/09 A2992 RMK A01 T01220090  RH  081%=      5-min Rain = 0
KMC5 251128Z 33017G22KT 12/09 A2992 RMK A01 T01220090  RH  081%=      5-min Rain = 0
KMC5 251129Z 33017G25KT 12/09 A2992 RMK A01 T01220091  RH  081%=      5-min Rain = 0
KMC5 251130Z 33016KT 12/09 A2992 RMK A01 T01220090  RH  081%=      5-min Rain = 0
KMC5 251131Z 32018KT 12/09 A2992 RMK A01 T01220091  RH  081%=      5-min Rain = 0
KMC5 251132Z 33020KT 12/09 A2992 RMK A01 T01220090  RH  081%=      5-min Rain = 0
KMC5 251133Z 33016KT 12/09 A2992 RMK A01 T01220091  RH  081%=      5-min Rain = 0
KMC5 251134Z 33022KT 12/09 A2992 RMK A01 T01210091  RH  082%=      5-min Rain = 0
KMC5 251135Z 33020KT 12/09 A2992 RMK A01 T01210090  RH  081%=      5-min Rain = 0
KMC5 251136Z 33019KT 12/09 A2992 RMK A01 T01210091  RH  082%=      5-min Rain = 0
KMC5 251137Z 33017G23KT 12/09 A2992 RMK A01 T01210091  RH  082%=      5-min Rain = 0
KMC5 251138Z 33019KT 12/09 A2992 RMK A01 T01210091  RH  082%=      5-min Rain = 0
KMC5 251139Z 33019KT 12/09 A2992 RMK A01 T01210091  RH  082%=      5-min Rain = 0
KMC5 251140Z 33020KT 12/09 A2992 RMK A01 T01210091  RH  082%=      5-min Rain = 0
KMC5 251141Z 33019KT 12/09 A2992 RMK A01 T01200090  RH  082%=      5-min Rain = 0
KMC5 251142Z 33017KT 12/09 A2992 RMK A01 T01200091  RH  082%=      5-min Rain = 0
KMC5 251143Z 33016KT 12/09 A2992 RMK A01 T01200092  RH  083%=      5-min Rain = 0
KMC5 251144Z 33017G22KT 12/09 A2992 RMK A01 T01200092  RH  083%=      5-min Rain = 0
KMC5 251145Z 33019KT 12/09 A2992 RMK A01 T01190091  RH  083%=      5-min Rain = 0
KMC5 251146Z 33020KT 12/09 A2992 RMK A01 T01190091  RH  083%=      5-min Rain = 0
KMC5 251147Z 33019G24KT 12/09 A2992 RMK A01 T01190091  RH  083%=      5-min Rain = 0
KMC5 251148Z 33018G23KT 12/09 A2992 RMK A01 T01190091  RH  083%=      5-min Rain = 0
KMC5 251149Z 33017KT 12/09 A2992 RMK A01 T01190091  RH  083%=      5-min Rain = 0
KMC5 251150Z 33016KT 12/09 A2992 RMK A01 T01190092  RH  083%=      5-min Rain = 0
KMC5 251151Z 34015KT 12/09 A2992 RMK A01 T01190092  RH  083%=      5-min Rain = 0
KMC5 251152Z 33018KT 12/09 A2992 RMK A01 T01190092  RH  084%=      5-min Rain = 0
KMC5 251153Z 33018KT 12/09 A2992 RMK A01 T01190091  RH  083%=      5-min Rain = 0
KMC5 251154Z 33017KT 12/09 A2992 RMK A01 T01190092  RH  083%=      5-min Rain = 0
KMC5 251155Z 33017G23KT 12/09 A2992 RMK A01 T01190091  RH  083%=      5-min Rain = 0
KMC5 251156Z 33016KT 12/09 A2993 RMK A01 T01190092  RH  084%=      5-min Rain = 0
KMC5 251157Z 33018KT 12/09 A2993 RMK A01 T01190092  RH  084%=      5-min Rain = 0
KMC5 251158Z 33016G21KT 12/09 A2993 RMK A01 T01190092  RH  084%=      5-min Rain = 0
KMC5 251159Z 33019KT 12/09 A2993 RMK A01 T01190092  RH  084%=      5-min Rain = 0
KMC5 251200Z 33015G21KT 12/09 A2993 RMK A01 T01190092  RH  084%=      5-min Rain = 0
KMC5 251201Z 33017KT 12/09 A2993 RMK A01 T01190093  RH  084%=      5-min Rain = 0
KMC5 251202Z 33019KT 12/09 A2993 RMK A01 T01190093  RH  084%=      5-min Rain = 0
KMC5 251203Z 33018KT 12/09 A2993 RMK A01 T01190093  RH  084%=      5-min Rain = 0
KMC5 251204Z 33016KT 12/09 A2993 RMK A01 T01190093  RH  084%=      5-min Rain = 0
KMC5 251205Z 33018KT 12/09 A2994 RMK A01 T01190093  RH  084%=      5-min Rain = 0
KMC5 251206Z 33015KT 12/09 A2994 RMK A01 T01190093  RH  084%=      5-min Rain = 0
KMC5 251207Z 33018KT 12/09 A2994 RMK A01 T01190094  RH  085%=      5-min Rain = 0
KMC5 251208Z 33019KT 12/09 A2994 RMK A01 T01190093  RH  084%=      5-min Rain = 0
KMC5 251209Z 33018G23KT 12/09 A2994 RMK A01 T01190093  RH  084%=      5-min Rain = 0
KMC5 251210Z 33020KT 12/09 A2994 RMK A01 T01190094  RH  084%=      5-min Rain = 0
KMC5 251211Z 33021KT 12/09 A2994 RMK A01 T01190093  RH  084%=      5-min Rain = 0
KMC5 251212Z 33019KT 12/09 A2994 RMK A01 T01190092  RH  084%=      5-min Rain = 0
KMC5 251213Z 33018KT 12/09 A2994 RMK A01 T01190093  RH  084%=      5-min Rain = 0
KMC5 251214Z 33019KT 12/09 A2994 RMK A01 T01190094  RH  085%=      5-min Rain = 0
KMC5 251215Z 33018KT 12/09 A2994 RMK A01 T01190094  RH  084%=      5-min Rain = 0
KMC5 251216Z 34017KT 12/09 A2994 RMK A01 T01190094  RH  085%=      5-min Rain = 0
KMC5 251217Z 33017G23KT 12/09 A2994 RMK A01 T01190094  RH  085%=      5-min Rain = 0
KMC5 251218Z 33021KT 12/09 A2994 RMK A01 T01190093  RH  084%=      5-min Rain = 0
KMC5 251219Z 33020KT 12/09 A2994 RMK A01 T01190093  RH  084%=      5-min Rain = 0
KMC5 251220Z 33018KT 12/09 A2994 RMK A01 T01190093  RH  084%=      5-min Rain = 0
KMC5 251221Z 33020KT 12/09 A2994 RMK A01 T01190093  RH  084%=      5-min Rain = 0
KMC5 251222Z 33019G24KT 12/09 A2994 RMK A01 T01190093  RH  084%=      5-min Rain = 0
KMC5 251223Z 33020KT 12/09 A2994 RMK A01 T01190093  RH  084%=      5-min Rain = 0
KMC5 251224Z 33018KT 12/09 A2994 RMK A01 T01190093  RH  084%=      5-min Rain = 0
KMC5 251225Z 33018KT 12/09 A2995 RMK A01 T01190093  RH  084%=      5-min Rain = 0
KMC5 251226Z 33018KT 12/09 A2995 RMK A01 T01190094  RH  084%=      5-min Rain = 0
KMC5 251227Z 33021KT 12/09 A2995 RMK A01 T01200093  RH  084%=      5-min Rain = 0
KMC5 251228Z 33020KT 12/09 A2995 RMK A01 T01200092  RH  083%=      5-min Rain = 0
KMC5 251229Z 33018KT 12/09 A2995 RMK A01 T01200093  RH  083%=      5-min Rain = 0
KMC5 251230Z 33017KT 12/09 A2995 RMK A01 T01200094  RH  084%=      5-min Rain = 0
KMC5 251231Z 33017KT 12/09 A2995 RMK A01 T01200094  RH  084%=      5-min Rain = 0
KMC5 251232Z 33020KT 12/09 A2995 RMK A01 T01200094  RH  084%=      5-min Rain = 0
KMC5 251233Z 33017G22KT 12/09 A2995 RMK A01 T01200093  RH  084%=      5-min Rain = 0
KMC5 251234Z 33020KT 12/09 A2995 RMK A01 T01200093  RH  084%=      5-min Rain = 0
KMC5 251235Z 34022KT 12/09 A2995 RMK A01 T01200093  RH  083%=      5-min Rain = 0
KMC5 251236Z 33023KT 12/09 A2995 RMK A01 T01200092  RH  083%=      5-min Rain = 0
KMC5 251237Z 34019G24KT 12/09 A2995 RMK A01 T01200093  RH  083%=      5-min Rain = 0
KMC5 251238Z 33021KT 12/09 A2995 RMK A01 T01200093  RH  083%=      5-min Rain = 0
KMC5 251239Z 33020G25KT 12/09 A2995 RMK A01 T01200093  RH  083%=      5-min Rain = 0
KMC5 251240Z 33020G25KT 12/09 A2995 RMK A01 T01200093  RH  083%=      5-min Rain = 0
KMC5 251241Z 33020KT 12/09 A2995 RMK A01 T01200093  RH  083%=      5-min Rain = 0
KMC5 251242Z 33017KT 12/09 A2996 RMK A01 T01200093  RH  083%=      5-min Rain = 0
KMC5 251243Z 33018KT 12/09 A2996 RMK A01 T01200094  RH  084%=      5-min Rain = 0
KMC5 251244Z 33018KT 12/09 A2996 RMK A01 T01200094  RH  084%=      5-min Rain = 0
KMC5 251245Z 33020G28KT 12/09 A2996 RMK A01 T01210094  RH  084%=      5-min Rain = 0
KMC5 251246Z 33019G25KT 12/09 A2996 RMK A01 T01210093  RH  083%=      5-min Rain = 0
KMC5 251247Z 33023KT 12/09 A2996 RMK A01 T01210094  RH  084%=      5-min Rain = 0
KMC5 251248Z 33020KT 12/09 A2995 RMK A01 T01210093  RH  083%=      5-min Rain = 0
KMC5 251249Z 33020KT 12/09 A2996 RMK A01 T01210093  RH  083%=      5-min Rain = 0
KMC5 251250Z 33019KT 12/09 A2996 RMK A01 T01210093  RH  083%=      5-min Rain = 0
KMC5 251251Z 33021KT 12/09 A2996 RMK A01 T01210094  RH  084%=      5-min Rain = 0
KMC5 251252Z 33020G25KT 12/09 A2996 RMK A01 T01210094  RH  083%=      5-min Rain = 0
KMC5 251253Z 33018G23KT 12/09 A2996 RMK A01 T01210094  RH  084%=      5-min Rain = 0
KMC5 251254Z 33021KT 12/09 A2996 RMK A01 T01210094  RH  083%=      5-min Rain = 0
KMC5 251255Z 33023G28KT 12/09 A2996 RMK A01 T01210094  RH  083%=      5-min Rain = 0
KMC5 251256Z 33018KT 12/09 A2996 RMK A01 T01210094  RH  083%=      5-min Rain = 0
KMC5 251257Z 33021KT 12/10 A2996 RMK A01 T01220095  RH  084%=      5-min Rain = 0
KMC5 251258Z 33017KT 12/09 A2996 RMK A01 T01220094  RH  083%=      5-min Rain = 0
KMC5 251259Z 33022KT 12/10 A2996 RMK A01 T01220095  RH  084%=      5-min Rain = 0
KMC5 251300Z 33024KT 12/09 A2996 RMK A01 T01220094  RH  083%=      5-min Rain = 0
KMC5 251301Z 33021KT 12/09 A2996 RMK A01 T01220093  RH  083%=      5-min Rain = 0
KMC5 251302Z 33025KT 12/09 A2996 RMK A01 T01220094  RH  083%=      5-min Rain = 0
KMC5 251303Z 33025KT 12/09 A2996 RMK A01 T01220093  RH  083%=      5-min Rain = 0
KMC5 251304Z 33023KT 12/09 A2996 RMK A01 T01220094  RH  083%=      5-min Rain = 0
KMC5 251305Z 33026KT 12/09 A2996 RMK A01 T01220093  RH  083%=      5-min Rain = 0
KMC5 251306Z 33023KT 12/09 A2996 RMK A01 T01220094  RH  083%=      5-min Rain = 0
KMC5 251307Z 33022G27KT 12/09 A2996 RMK A01 T01220093  RH  083%=      5-min Rain = 0
KMC5 251308Z 33021KT 12/09 A2996 RMK A01 T01220094  RH  083%=      5-min Rain = 0
KMC5 251309Z 33021G27KT 12/09 A2996 RMK A01 T01220094  RH  083%=      5-min Rain = 0
KMC5 251310Z 33022KT 12/09 A2996 RMK A01 T01220094  RH  083%=      5-min Rain = 0
KMC5 251311Z 34021G26KT 12/09 A2996 RMK A01 T01220094  RH  083%=      5-min Rain = 0
KMC5 251312Z 34024KT 12/09 A2996 RMK A01 T01220094  RH  083%=      5-min Rain = 0
KMC5 251313Z 34024KT 12/09 A2996 RMK A01 T01220094  RH  083%=      5-min Rain = 0
KMC5 251314Z 34022KT 12/09 A2996 RMK A01 T01220093  RH  083%=      5-min Rain = 0
KMC5 251315Z 34022KT 12/09 A2996 RMK A01 T01220094  RH  083%=      5-min Rain = 0
KMC5 251316Z 33020KT 12/09 A2996 RMK A01 T01220094  RH  083%=      5-min Rain = 0
KMC5 251317Z 34017KT 12/10 A2997 RMK A01 T01230095  RH  083%=      5-min Rain = 0
KMC5 251318Z 34016G22KT 12/10 A2997 RMK A01 T01230097  RH  084%=      5-min Rain = 0
KMC5 251319Z 34019KT 12/10 A2997 RMK A01 T01240096  RH  083%=      5-min Rain = 0
KMC5 251320Z 34021KT 12/10 A2996 RMK A01 T01240096  RH  083%=      5-min Rain = 0
KMC5 251321Z 34019KT 12/10 A2997 RMK A01 T01240096  RH  083%=      5-min Rain = 0
KMC5 251322Z 34023KT 12/10 A2996 RMK A01 T01240096  RH  083%=      5-min Rain = 0
KMC5 251323Z 34022KT 12/10 A2996 RMK A01 T01240095  RH  083%=      5-min Rain = 0
KMC5 251324Z 34021G28KT 12/10 A2996 RMK A01 T01240096  RH  083%=      5-min Rain = 0
KMC5 251325Z 34023KT 12/10 A2996 RMK A01 T01240096  RH  083%=      5-min Rain = 0
KMC5 251326Z 33022G28KT 12/10 A2996 RMK A01 T01240096  RH  083%=      5-min Rain = 0
KMC5 251327Z 34020G25KT 12/10 A2996 RMK A01 T01240096  RH  083%=      5-min Rain = 0
KMC5 251328Z 34023KT 12/10 A2996 RMK A01 T01240097  RH  084%=      5-min Rain = 0
KMC5 251329Z 33022KT 12/10 A2996 RMK A01 T01240096  RH  083%=      5-min Rain = 0
KMC5 251330Z 34020G26KT 12/10 A2996 RMK A01 T01240097  RH  084%=      5-min Rain = 0
KMC5 251331Z 34024KT 12/10 A2996 RMK A01 T01240096  RH  083%=      5-min Rain = 0
KMC5 251332Z 34025KT 12/10 A2996 RMK A01 T01240096  RH  083%=      5-min Rain = 0
KMC5 251333Z 34023KT 12/10 A2996 RMK A01 T01240096  RH  083%=      5-min Rain = 0
KMC5 251334Z 34023KT 12/10 A2996 RMK A01 T01240097  RH  083%=      5-min Rain = 0
KMC5 251335Z 34025KT 12/10 A2996 RMK A01 T01240096  RH  083%=      5-min Rain = 0
KMC5 251336Z 34023KT 12/10 A2996 RMK A01 T01240096  RH  083%=      5-min Rain = 0
KMC5 251337Z 34022KT 12/10 A2996 RMK A01 T01240097  RH  083%=      5-min Rain = 0
KMC5 251338Z 34022KT 13/10 A2996 RMK A01 T01250097  RH  083%=      5-min Rain = 0
KMC5 251339Z 34024KT 13/10 A2996 RMK A01 T01250097  RH  083%=      5-min Rain = 0
KMC5 251340Z 34023G28KT 13/10 A2996 RMK A01 T01250097  RH  083%=      5-min Rain = 0
KMC5 251341Z 34021KT 13/10 A2996 RMK A01 T01250097  RH  083%=      5-min Rain = 0
KMC5 251342Z 34020KT 13/10 A2996 RMK A01 T01250097  RH  083%=      5-min Rain = 0
KMC5 251343Z 34023KT 13/10 A2996 RMK A01 T01260097  RH  083%=      5-min Rain = 0
KMC5 251344Z 34022KT 13/10 A2996 RMK A01 T01260097  RH  083%=      5-min Rain = 0
KMC5 251345Z 34020KT 13/10 A2996 RMK A01 T01260098  RH  083%=      5-min Rain = 0
KMC5 251346Z 34021KT 13/10 A2996 RMK A01 T01260098  RH  083%=      5-min Rain = 0
KMC5 251347Z 34020KT 13/10 A2996 RMK A01 T01270098  RH  083%=      5-min Rain = 0
KMC5 251348Z 34017KT 13/10 A2996 RMK A01 T01270099  RH  083%=      5-min Rain = 0
KMC5 251349Z 34017KT 13/10 A2996 RMK A01 T01280100  RH  083%=      5-min Rain = 0
KMC5 251350Z 34018KT 13/10 A2996 RMK A01 T01290101  RH  083%=      5-min Rain = 0
KMC5 251351Z 34021KT 13/10 A2996 RMK A01 T01290100  RH  082%=      5-min Rain = 0
KMC5 251352Z 34022KT 13/10 A2996 RMK A01 T01290099  RH  082%=      5-min Rain = 0
KMC5 251353Z 34020G25KT 13/10 A2996 RMK A01 T01280099  RH  082%=      5-min Rain = 0
KMC5 251354Z 35018KT 13/10 A2996 RMK A01 T01280100  RH  083%=      5-min Rain = 0
KMC5 251355Z 35020KT 13/10 A2996 RMK A01 T01290100  RH  082%=      5-min Rain = 0
KMC5 251356Z 35021KT 13/10 A2996 RMK A01 T01290099  RH  082%=      5-min Rain = 0
KMC5 251357Z 35020KT 13/10 A2996 RMK A01 T01290099  RH  082%=      5-min Rain = 0
KMC5 251358Z 34018KT 13/10 A2996 RMK A01 T01290099  RH  082%=      5-min Rain = 0
KMC5 251359Z 35020KT 13/10 A2996 RMK A01 T01300100  RH  082%=      5-min Rain = 0
KMC5 251400Z 35021G27KT 13/10 A2996 RMK A01 T01300100  RH  082%=      5-min Rain = 0
KMC5 251401Z 35024KT 13/10 A2996 RMK A01 T01310099  RH  081%=      5-min Rain = 0
KMC5 251402Z 35020KT 13/10 A2996 RMK A01 T01300098  RH  081%=      5-min Rain = 0
KMC5 251403Z 34023KT 13/10 A2996 RMK A01 T01300099  RH  081%=      5-min Rain = 0
KMC5 251404Z 34024KT 13/10 A2996 RMK A01 T01300099  RH  081%=      5-min Rain = 0
KMC5 251405Z 34023KT 13/10 A2996 RMK A01 T01300099  RH  081%=      5-min Rain = 0
KMC5 251406Z 34022KT 13/10 A2996 RMK A01 T01300099  RH  081%=      5-min Rain = 0
KMC5 251407Z 34023KT 13/10 A2996 RMK A01 T01300099  RH  081%=      5-min Rain = 0
KMC5 251408Z 34023KT 13/10 A2996 RMK A01 T01310099  RH  081%=      5-min Rain = 0
KMC5 251409Z 34024KT 13/10 A2996 RMK A01 T01310099  RH  081%=      5-min Rain = 0
KMC5 251410Z 34023KT 13/10 A2996 RMK A01 T01310099  RH  081%=      5-min Rain = 0
KMC5 251411Z 34025KT 13/10 A2996 RMK A01 T01310099  RH  081%=      5-min Rain = 0
KMC5 251412Z 33023KT 13/10 A2996 RMK A01 T01310099  RH  081%=      5-min Rain = 0
KMC5 251413Z 33022KT 13/10 A2996 RMK A01 T01310100  RH  081%=      5-min Rain = 0
KMC5 251414Z 34022KT 13/10 A2996 RMK A01 T01320100  RH  081%=      5-min Rain = 0
KMC5 251415Z 34022KT 13/10 A2996 RMK A01 T01330101  RH  081%=      5-min Rain = 0
KMC5 251416Z 34022KT 13/10 A2996 RMK A01 T01330100  RH  080%=      5-min Rain = 0
KMC5 251417Z 34023KT 13/10 A2996 RMK A01 T01330100  RH  081%=      5-min Rain = 0
KMC5 251418Z 34022KT 13/10 A2996 RMK A01 T01330100  RH  081%=      5-min Rain = 0
KMC5 251419Z 34021KT 13/10 A2996 RMK A01 T01330101  RH  081%=      5-min Rain = 0
KMC5 251420Z 34022KT 13/10 A2996 RMK A01 T01330100  RH  080%=      5-min Rain = 0
KMC5 251421Z 35023KT 13/10 A2996 RMK A01 T01330100  RH  080%=      5-min Rain = 0
KMC5 251422Z 34019G25KT 13/10 A2996 RMK A01 T01330100  RH  081%=      5-min Rain = 0
KMC5 251423Z 34020KT 13/10 A2996 RMK A01 T01330100  RH  081%=      5-min Rain = 0
KMC5 251424Z 34024KT 13/10 A2996 RMK A01 T01330100  RH  080%=      5-min Rain = 0
KMC5 251425Z 34024KT 13/10 A2996 RMK A01 T01330100  RH  080%=      5-min Rain = 0
KMC5 251426Z 34023KT 13/10 A2996 RMK A01 T01330100  RH  080%=      5-min Rain = 0
KMC5 251427Z 34023KT 13/10 A2996 RMK A01 T01330100  RH  080%=      5-min Rain = 0
KMC5 251428Z 34022KT 13/10 A2996 RMK A01 T01330100  RH  081%=      5-min Rain = 0
KMC5 251429Z 34023KT 13/10 A2996 RMK A01 T01330100  RH  081%=      5-min Rain = 0
KMC5 251430Z 34018KT 13/10 A2997 RMK A01 T01340101  RH  081%=      5-min Rain = 0
KMC5 251431Z 34021KT 14/10 A2997 RMK A01 T01360103  RH  081%=      5-min Rain = 0
KMC5 251432Z 34020G25KT 14/10 A2997 RMK A01 T01360102  RH  080%=      5-min Rain = 0
KMC5 251433Z 34022G27KT 14/10 A2997 RMK A01 T01360102  RH  080%=      5-min Rain = 0
KMC5 251434Z 33023KT 14/10 A2997 RMK A01 T01360102  RH  079%=      5-min Rain = 0
KMC5 251435Z 34021KT 14/10 A2997 RMK A01 T01360101  RH  079%=      5-min Rain = 0
KMC5 251436Z 34020KT 14/10 A2997 RMK A01 T01360102  RH  080%=      5-min Rain = 0
KMC5 251437Z 34022KT 14/10 A2997 RMK A01 T01360101  RH  079%=      5-min Rain = 0
KMC5 251438Z 35018KT 14/10 A2997 RMK A01 T01370103  RH  080%=      5-min Rain = 0
KMC5 251439Z 35020G25KT 14/10 A2997 RMK A01 T01390104  RH  079%=      5-min Rain = 0
KMC5 251440Z 35020G25KT 14/10 A2997 RMK A01 T01390103  RH  079%=      5-min Rain = 0
KMC5 251441Z 35020KT 14/10 A2997 RMK A01 T01390103  RH  079%=      5-min Rain = 0
KMC5 251442Z 35023KT 14/10 A2997 RMK A01 T01400103  RH  078%=      5-min Rain = 0
KMC5 251443Z 35022KT 14/10 A2997 RMK A01 T01390102  RH  078%=      5-min Rain = 0
KMC5 251444Z 35024KT 14/10 A2997 RMK A01 T01380100  RH  078%=      5-min Rain = 0
KMC5 251445Z 35023KT 14/10 A2997 RMK A01 T01370101  RH  079%=      5-min Rain = 0
KMC5 251446Z 34022KT 14/10 A2997 RMK A01 T01370102  RH  079%=      5-min Rain = 0
KMC5 251447Z 35022G27KT 14/10 A2997 RMK A01 T01370102  RH  079%=      5-min Rain = 0
KMC5 251448Z 35021KT 14/10 A2997 RMK A01 T01380102  RH  079%=      5-min Rain = 0
KMC5 251449Z 35023G28KT 14/10 A2997 RMK A01 T01390103  RH  079%=      5-min Rain = 0
KMC5 251450Z 35025KT 14/10 A2997 RMK A01 T01400103  RH  078%=      5-min Rain = 0
KMC5 251451Z 35023KT 14/10 A2997 RMK A01 T01410103  RH  078%=      5-min Rain = 0
KMC5 251452Z 34025KT 14/10 A2997 RMK A01 T01400101  RH  077%=      5-min Rain = 0
KMC5 251453Z 35024KT 14/10 A2997 RMK A01 T01390101  RH  078%=      5-min Rain = 0
KMC5 251454Z 35027KT 14/10 A2997 RMK A01 T01390101  RH  078%=      5-min Rain = 0
KMC5 251455Z 35024G30KT 14/10 A2997 RMK A01 T01390101  RH  078%=      5-min Rain = 0
KMC5 251456Z 34021KT 14/10 A2997 RMK A01 T01400104  RH  079%=      5-min Rain = 0
KMC5 251457Z 35023KT 14/10 A2997 RMK A01 T01420103  RH  077%=      5-min Rain = 0
KMC5 251458Z 35019KT 14/10 A2997 RMK A01 T01420104  RH  078%=      5-min Rain = 0
KMC5 251459Z 35020KT 14/11 A2997 RMK A01 T01440106  RH  078%=      5-min Rain = 0
KMC5 251500Z 35024G29KT 15/10 A2997 RMK A01 T01450104  RH  076%=      5-min Rain = 0
KMC5 251501Z 35023KT 14/10 A2997 RMK A01 T01440104  RH  077%=      5-min Rain = 0
KMC5 251502Z 35024KT 14/10 A2997 RMK A01 T01440103  RH  076%=      5-min Rain = 0
KMC5 251503Z 35023KT 14/10 A2997 RMK A01 T01430103  RH  077%=      5-min Rain = 0
KMC5 251504Z 35023KT 14/10 A2997 RMK A01 T01430103  RH  077%=      5-min Rain = 0
KMC5 251505Z 35023KT 14/10 A2997 RMK A01 T01440104  RH  077%=      5-min Rain = 0
KMC5 251506Z 35019KT 15/10 A2997 RMK A01 T01450104  RH  076%=      5-min Rain = 0
KMC5 251507Z 35024KT 15/10 A2997 RMK A01 T01450104  RH  076%=      5-min Rain = 0
KMC5 251508Z 34026KT 15/10 A2997 RMK A01 T01450103  RH  076%=      5-min Rain = 0
KMC5 251509Z 34024KT 14/10 A2997 RMK A01 T01430102  RH  076%=      5-min Rain = 0
KMC5 251510Z 34022KT 14/10 A2997 RMK A01 T01420102  RH  077%=      5-min Rain = 0
KMC5 251511Z 34019KT 14/11 A2997 RMK A01 T01430105  RH  078%=      5-min Rain = 0
KMC5 251512Z 34020KT 15/11 A2997 RMK A01 T01460107  RH  077%=      5-min Rain = 0
KMC5 251513Z 34018KT 15/11 A2997 RMK A01 T01480108  RH  077%=      5-min Rain = 0
KMC5 251514Z 34022G28KT 15/11 A2997 RMK A01 T01510108  RH  075%=      5-min Rain = 0
KMC5 251515Z 34023G28KT 15/10 A2997 RMK A01 T01480103  RH  074%=      5-min Rain = 0
KMC5 251516Z 35020G27KT 15/11 A2997 RMK A01 T01460106  RH  077%=      5-min Rain = 0
KMC5 251517Z 34021G27KT 15/10 A2997 RMK A01 T01470104  RH  075%=      5-min Rain = 0
KMC5 251518Z 35023KT 15/10 A2997 RMK A01 T01460104  RH  076%=      5-min Rain = 0
KMC5 251519Z 34021KT 15/10 A2998 RMK A01 T01460104  RH  076%=      5-min Rain = 0
KMC5 251520Z 35022G27KT 15/11 A2998 RMK A01 T01460105  RH  076%=      5-min Rain = 0
KMC5 251521Z 35021KT 15/10 A2998 RMK A01 T01460104  RH  076%=      5-min Rain = 0
KMC5 251522Z 35019KT 15/10 A2998 RMK A01 T01460104  RH  076%=      5-min Rain = 0
KMC5 251523Z 34022KT 15/10 A2998 RMK A01 T01450104  RH  076%=      5-min Rain = 0
KMC5 251524Z 34022KT 15/10 A2998 RMK A01 T01460104  RH  076%=      5-min Rain = 0
KMC5 251525Z 34022KT 15/10 A2998 RMK A01 T01460103  RH  076%=      5-min Rain = 0
KMC5 251526Z 35022KT 15/10 A2998 RMK A01 T01450104  RH  076%=      5-min Rain = 0
KMC5 251527Z 35024KT 15/10 A2998 RMK A01 T01450102  RH  076%=      5-min Rain = 0
KMC5 251528Z 34021G26KT 14/10 A2998 RMK A01 T01440103  RH  077%=      5-min Rain = 0
KMC5 251529Z 35022KT 14/10 A2998 RMK A01 T01440103  RH  076%=      5-min Rain = 0
KMC5 251530Z 35023KT 14/10 A2998 RMK A01 T01440103  RH  076%=      5-min Rain = 0
KMC5 251531Z 35023KT 14/10 A2998 RMK A01 T01440103  RH  076%=      5-min Rain = 0
KMC5 251532Z 35020G27KT 15/10 A2998 RMK A01 T01450104  RH  076%=      5-min Rain = 0
KMC5 251533Z 34023KT 15/10 A2998 RMK A01 T01460103  RH  075%=      5-min Rain = 0
KMC5 251534Z 35020G25KT 15/11 A2998 RMK A01 T01470105  RH  076%=      5-min Rain = 0
KMC5 251535Z 35021KT 15/11 A2998 RMK A01 T01490106  RH  075%=      5-min Rain = 0
KMC5 251536Z 35023G28KT 15/10 A2998 RMK A01 T01500104  RH  074%=      5-min Rain = 0
KMC5 251537Z 35022KT 15/11 A2998 RMK A01 T01490105  RH  075%=      5-min Rain = 0
KMC5 251538Z 35021KT 15/11 A2998 RMK A01 T01500105  RH  074%=      5-min Rain = 0
KMC5 251539Z 34022KT 15/11 A2998 RMK A01 T01500105  RH  074%=      5-min Rain = 0
KMC5 251540Z 35021G27KT 15/11 A2998 RMK A01 T01500105  RH  074%=      5-min Rain = 0
KMC5 251541Z 35021KT 15/10 A2999 RMK A01 T01500104  RH  074%=      5-min Rain = 0
KMC5 251542Z 35021KT 15/11 A2999 RMK A01 T01490106  RH  075%=      5-min Rain = 0
KMC5 251543Z 35024KT 15/11 A2999 RMK A01 T01500105  RH  074%=      5-min Rain = 0
KMC5 251544Z 36020G25KT 15/11 A2999 RMK A01 T01510107  RH  075%=      5-min Rain = 0
KMC5 251545Z 00020KT 15/11 A2999 RMK A01 T01540108  RH  074%=      5-min Rain = 0
KMC5 251546Z 36018KT 16/11 A2999 RMK A01 T01550108  RH  074%=      5-min Rain = 0
KMC5 251547Z 35017KT 16/11 A2999 RMK A01 T01570109  RH  073%=      5-min Rain = 0
KMC5 251548Z 36019KT 16/11 A2999 RMK A01 T01580108  RH  072%=      5-min Rain = 0
KMC5 251549Z 36020G25KT 16/11 A2999 RMK A01 T01550106  RH  072%=      5-min Rain = 0
KMC5 251550Z 35019G24KT 15/11 A2999 RMK A01 T01530106  RH  074%=      5-min Rain = 0
KMC5 251551Z 36022KT 15/11 A2998 RMK A01 T01520105  RH  074%=      5-min Rain = 0
KMC5 251552Z 36020KT 15/11 A2999 RMK A01 T01510105  RH  074%=      5-min Rain = 0
KMC5 251553Z 35016KT 15/11 A2999 RMK A01 T01500107  RH  075%=      5-min Rain = 0
KMC5 251554Z 35015G22KT 15/11 A2999 RMK A01 T01530112  RH  076%=      5-min Rain = 0
KMC5 251555Z 35021KT 16/11 A2999 RMK A01 T01560107  RH  073%=      5-min Rain = 0
KMC5 251556Z 34016KT 15/11 A2999 RMK A01 T01520106  RH  074%=      5-min Rain = 0
KMC5 251557Z 34016KT 15/11 A2999 RMK A01 T01510107  RH  075%=      5-min Rain = 0
KMC5 251558Z 34018KT 15/11 A2999 RMK A01 T01510107  RH  075%=      5-min Rain = 0
KMC5 251559Z 34020KT 15/11 A2999 RMK A01 T01520107  RH  075%=      5-min Rain = 0
KMC5 251600Z 35020KT 15/11 A2999 RMK A01 T01520107  RH  074%=      5-min Rain = 0
KMC5 251601Z 35020KT 15/11 A2999 RMK A01 T01510105  RH  074%=      5-min Rain = 0
KMC5 251602Z 35017KT 15/11 A2999 RMK A01 T01510107  RH  075%=      5-min Rain = 0
KMC5 251603Z 36021KT 15/11 A2999 RMK A01 T01520106  RH  074%=      5-min Rain = 0
KMC5 251604Z 36022KT 15/11 A2999 RMK A01 T01530106  RH  074%=      5-min Rain = 0
KMC5 251605Z 36020G25KT 15/11 A2999 RMK A01 T01530105  RH  073%=      5-min Rain = 0
KMC5 251606Z 35018KT 15/11 A2999 RMK A01 T01530107  RH  074%=      5-min Rain = 0
KMC5 251607Z 36020G25KT 16/11 A2999 RMK A01 T01560109  RH  073%=      5-min Rain = 0
KMC5 251608Z 35023KT 16/11 A2999 RMK A01 T01570106  RH  072%=      5-min Rain = 0
KMC5 251609Z 35023KT 15/11 A2999 RMK A01 T01540105  RH  072%=      5-min Rain = 0
KMC5 251610Z 35022KT 15/11 A2999 RMK A01 T01530106  RH  074%=      5-min Rain = 0
KMC5 251611Z 36020KT 15/11 A2999 RMK A01 T01530105  RH  073%=      5-min Rain = 0
KMC5 251612Z 35020G25KT 15/11 A2999 RMK A01 T01530106  RH  074%=      5-min Rain = 0
KMC5 251613Z 35022KT 15/11 A2999 RMK A01 T01530105  RH  073%=      5-min Rain = 0
KMC5 251614Z 35020KT 15/10 A2999 RMK A01 T01520104  RH  073%=      5-min Rain = 0
KMC5 251615Z 00022KT 15/11 A2999 RMK A01 T01510105  RH  074%=      5-min Rain = 0
KMC5 251616Z 35024KT 15/10 A2999 RMK A01 T01510104  RH  073%=      5-min Rain = 0
KMC5 251617Z 36021KT 15/10 A2999 RMK A01 T01500103  RH  073%=      5-min Rain = 0
KMC5 251618Z 35019KT 15/11 A2999 RMK A01 T01500105  RH  074%=      5-min Rain = 0
KMC5 251619Z 35019G24KT 15/11 A2999 RMK A01 T01510107  RH  075%=      5-min Rain = 0
KMC5 251620Z 35022G27KT 15/11 A2999 RMK A01 T01530105  RH  073%=      5-min Rain = 0
KMC5 251621Z 35020KT 15/11 A2999 RMK A01 T01520106  RH  074%=      5-min Rain = 0
KMC5 251622Z 34021KT 15/11 A2999 RMK A01 T01520105  RH  074%=      5-min Rain = 0
KMC5 251623Z 34019G24KT 15/11 A2999 RMK A01 T01520106  RH  074%=      5-min Rain = 0
KMC5 251624Z 35022KT 15/11 A2999 RMK A01 T01520107  RH  074%=      5-min Rain = 0
KMC5 251625Z 35020G26KT 15/11 A2999 RMK A01 T01520106  RH  074%=      5-min Rain = 0
KMC5 251626Z 35023G28KT 15/11 A2999 RMK A01 T01520107  RH  074%=      5-min Rain = 0
KMC5 251627Z 35022KT 15/11 A2999 RMK A01 T01530106  RH  073%=      5-min Rain = 0
KMC5 251628Z 35022KT 15/10 A2999 RMK A01 T01510104  RH  074%=      5-min Rain = 0
KMC5 251629Z 35020G26KT 15/11 A2999 RMK A01 T01500105  RH  074%=      5-min Rain = 0
KMC5 251630Z 35020KT 15/11 A2999 RMK A01 T01520107  RH  075%=      5-min Rain = 0
KMC5 251631Z 35020G25KT 15/11 A2999 RMK A01 T01540107  RH  074%=      5-min Rain = 0
KMC5 251632Z 35025KT 16/11 A2999 RMK A01 T01550105  RH  072%=      5-min Rain = 0
KMC5 251633Z 35022KT 15/11 A2999 RMK A01 T01530106  RH  073%=      5-min Rain = 0
KMC5 251634Z 35019G24KT 15/11 A2999 RMK A01 T01530106  RH  074%=      5-min Rain = 0
KMC5 251635Z 34021G26KT 15/11 A2999 RMK A01 T01520106  RH  074%=      5-min Rain = 0
KMC5 251636Z 35021G27KT 16/11 A2999 RMK A01 T01550109  RH  074%=      5-min Rain = 0
KMC5 251637Z 35019KT 16/11 A30 RMK A01 T01560106  RH  072%=      5-min Rain = 0
KMC5 251638Z 35019KT 16/11 A30 RMK A01 T01550107  RH  073%=      5-min Rain = 0
KMC5 251639Z 35020KT 16/11 A30 RMK A01 T01550108  RH  073%=      5-min Rain = 0
KMC5 251640Z 34020G25KT 16/11 A30 RMK A01 T01560107  RH  072%=      5-min Rain = 0
KMC5 251641Z 35020KT 16/11 A30 RMK A01 T01550108  RH  073%=      5-min Rain = 0
KMC5 251642Z 35019KT 16/11 A2999 RMK A01 T01550106  RH  072%=      5-min Rain = 0
KMC5 251643Z 35020KT 16/11 A30 RMK A01 T01550109  RH  074%=      5-min Rain = 0
KMC5 251644Z 35019G25KT 16/11 A30 RMK A01 T01600112  RH  073%=      5-min Rain = 0
KMC5 251645Z 35021KT 16/11 A30 RMK A01 T01610108  RH  071%=      5-min Rain = 0
KMC5 251646Z 35019KT 16/11 A30 RMK A01 T01580110  RH  073%=      5-min Rain = 0
KMC5 251647Z 35022KT 16/11 A30 RMK A01 T01610111  RH  072%=      5-min Rain = 0
KMC5 251648Z 36022KT 16/11 A2999 RMK A01 T01620108  RH  070%=      5-min Rain = 0
KMC5 251649Z 35020KT 16/11 A30 RMK A01 T01610111  RH  072%=      5-min Rain = 0
KMC5 251650Z 35021KT 16/11 A30 RMK A01 T01640111  RH  071%=      5-min Rain = 0
KMC5 251651Z 35021KT 17/11 A30 RMK A01 T01660109  RH  069%=      5-min Rain = 0
KMC5 251652Z 34023KT 16/11 A30 RMK A01 T01630109  RH  070%=      5-min Rain = 0
KMC5 251653Z 35022KT 16/11 A30 RMK A01 T01620108  RH  070%=      5-min Rain = 0
KMC5 251654Z 35021KT 16/11 A30 RMK A01 T01610109  RH  071%=      5-min Rain = 0
KMC5 251655Z 34020G26KT 16/11 A30 RMK A01 T01610112  RH  072%=      5-min Rain = 0
KMC5 251656Z 34021KT 16/11 A30 RMK A01 T01640110  RH  071%=      5-min Rain = 0
KMC5 251657Z 34021KT 16/11 A30 RMK A01 T01620108  RH  070%=      5-min Rain = 0
KMC5 251658Z 35023KT 16/11 A30 RMK A01 T01600109  RH  072%=      5-min Rain = 0
KMC5 251659Z 35022KT 16/11 A30 RMK A01 T01610110  RH  072%=      5-min Rain = 0
KMC5 251700Z 35025KT 16/11 A30 RMK A01 T01640110  RH  070%=      5-min Rain = 0
KMC5 251701Z 34024KT 16/11 A30 RMK A01 T01610107  RH  070%=      5-min Rain = 0
KMC5 251702Z 34023KT 16/11 A30 RMK A01 T01580107  RH  071%=      5-min Rain = 0
KMC5 251703Z 34023KT 16/11 A30 RMK A01 T01570106  RH  072%=      5-min Rain = 0
KMC5 251704Z 34022KT 16/11 A30 RMK A01 T01560108  RH  073%=      5-min Rain = 0
KMC5 251705Z 35020G25KT 16/11 A30 RMK A01 T01560108  RH  073%=      5-min Rain = 0
KMC5 251706Z 35023KT 16/11 A30 RMK A01 T01570108  RH  073%=      5-min Rain = 0
KMC5 251707Z 35020KT 16/11 A30 RMK A01 T01570109  RH  073%=      5-min Rain = 0
KMC5 251708Z 35020G25KT 16/11 A30 RMK A01 T01590109  RH  072%=      5-min Rain = 0
KMC5 251709Z 35017KT 16/11 A30 RMK A01 T01600110  RH  072%=      5-min Rain = 0
KMC5 251710Z 35020KT 16/11 A30 RMK A01 T01610112  RH  072%=      5-min Rain = 0
KMC5 251711Z 34020KT 16/11 A30 RMK A01 T01610109  RH  071%=      5-min Rain = 0
KMC5 251712Z 35020KT 16/11 A30 RMK A01 T01600110  RH  072%=      5-min Rain = 0
KMC5 251713Z 35020KT 16/11 A30 RMK A01 T01590109  RH  072%=      5-min Rain = 0
KMC5 251714Z 34020G25KT 16/11 A30 RMK A01 T01590110  RH  073%=      5-min Rain = 0
KMC5 251715Z 35019G25KT 16/11 A30 RMK A01 T01590110  RH  073%=      5-min Rain = 0
KMC5 251716Z 35017KT 16/11 A30 RMK A01 T01590110  RH  072%=      5-min Rain = 0
KMC5 251717Z 35022KT 16/11 A30 RMK A01 T01590109  RH  072%=      5-min Rain = 0
KMC5 251718Z 35018KT 16/11 A30 RMK A01 T01570108  RH  073%=      5-min Rain = 0
KMC5 251719Z 35021KT 16/11 A30 RMK A01 T01570109  RH  073%=      5-min Rain = 0
KMC5 251720Z 35021KT 16/11 A30 RMK A01 T01560109  RH  073%=      5-min Rain = 0
KMC5 251721Z 34021G26KT 16/11 A30 RMK A01 T01560108  RH  073%=      5-min Rain = 0
KMC5 251722Z 35021KT 16/11 A30 RMK A01 T01550108  RH  074%=      5-min Rain = 0
KMC5 251723Z 34020KT 15/11 A30 RMK A01 T01540109  RH  074%=      5-min Rain = 0
KMC5 251724Z 35019G24KT 16/11 A30 RMK A01 T01550110  RH  074%=      5-min Rain = 0
KMC5 251725Z 35018G23KT 16/11 A30 RMK A01 T01570112  RH  075%=      5-min Rain = 0
KMC5 251726Z 36019KT 16/11 A30 RMK A01 T01590111  RH  073%=      5-min Rain = 0
KMC5 251727Z 36020KT 16/11 A30 RMK A01 T01590110  RH  073%=      5-min Rain = 0
KMC5 251728Z 00020KT 16/11 A30 RMK A01 T01580110  RH  073%=      5-min Rain = 0
KMC5 251729Z 00019KT 16/11 A30 RMK A01 T01570111  RH  074%=      5-min Rain = 0
KMC5 251730Z 35019G24KT 16/11 A30 RMK A01 T01570113  RH  075%=      5-min Rain = 0
KMC5 251731Z 34021KT 16/11 A30 RMK A01 T01570109  RH  073%=      5-min Rain = 0
KMC5 251732Z 34020KT 15/11 A30 RMK A01 T01540109  RH  074%=      5-min Rain = 0
KMC5 251733Z 35021KT 15/11 A30 RMK A01 T01530111  RH  076%=      5-min Rain = 0
KMC5 251734Z 35019KT 15/11 A30 RMK A01 T01540110  RH  075%=      5-min Rain = 0
KMC5 251735Z 36024KT 16/11 A30 RMK A01 T01570112  RH  074%=      5-min Rain = 0
KMC5 251736Z 35024KT 16/11 A30 RMK A01 T01580109  RH  073%=      5-min Rain = 0
KMC5 251737Z 35021KT 16/11 A30 RMK A01 T01570110  RH  074%=      5-min Rain = 0
KMC5 251738Z 36022KT 16/11 A30 RMK A01 T01570110  RH  073%=      5-min Rain = 0
KMC5 251739Z 36021KT 16/11 A30 RMK A01 T01580110  RH  073%=      5-min Rain = 0
KMC5 251740Z 36020KT 16/11 A30 RMK A01 T01600113  RH  073%=      5-min Rain = 0
KMC5 251741Z 36021KT 16/11 A30 RMK A01 T01620111  RH  072%=      5-min Rain = 0
KMC5 251742Z 35021KT 16/11 A30 RMK A01 T01610112  RH  073%=      5-min Rain = 0
KMC5 251743Z 34023KT 16/11 A30 RMK A01 T01600110  RH  072%=      5-min Rain = 0
KMC5 251744Z 34020KT 16/11 A30 RMK A01 T01580110  RH  073%=      5-min Rain = 0
KMC5 251745Z 34019KT 16/11 A30 RMK A01 T01580113  RH  075%=      5-min Rain = 0
KMC5 251746Z 35020KT 16/11 A30 RMK A01 T01610114  RH  073%=      5-min Rain = 0
KMC5 251747Z 00021KT 16/11 A30 RMK A01 T01620112  RH  073%=      5-min Rain = 0
KMC5 251748Z 36023KT 16/11 A30 RMK A01 T01620113  RH  073%=      5-min Rain = 0
KMC5 251749Z 35022KT 16/11 A30 RMK A01 T01610112  RH  073%=      5-min Rain = 0
KMC5 251750Z 35021KT 16/11 A30 RMK A01 T01600112  RH  073%=      5-min Rain = 0
KMC5 251751Z 35020KT 16/11 A30 RMK A01 T01590112  RH  074%=      5-min Rain = 0
KMC5 251752Z 34022KT 16/11 A30 RMK A01 T01590111  RH  073%=      5-min Rain = 0
KMC5 251753Z 35017G22KT 16/11 A30 RMK A01 T01570113  RH  075%=      5-min Rain = 0
KMC5 251754Z 35021KT 16/11 A30 RMK A01 T01580112  RH  074%=      5-min Rain = 0
KMC5 251755Z 35021KT 16/11 A30 RMK A01 T01560110  RH  074%=      5-min Rain = 0
KMC5 251756Z 35020KT 15/11 A30 RMK A01 T01540111  RH  075%=      5-min Rain = 0
KMC5 251757Z 35018KT 15/11 A30 RMK A01 T01540112  RH  076%=      5-min Rain = 0
KMC5 251758Z 34021KT 16/11 A30 RMK A01 T01550113  RH  076%=      5-min Rain = 0
KMC5 251759Z 34021KT 16/11 A30 RMK A01 T01550112  RH  075%=      5-min Rain = 0
KMC5 251800Z 34022KT 15/11 A30 RMK A01 T01540111  RH  076%=      5-min Rain = 0
KMC5 251801Z 35023KT 15/11 A30 RMK A01 T01530113  RH  077%=      5-min Rain = 0
KMC5 251802Z 35021KT 16/11 A30 RMK A01 T01550113  RH  076%=      5-min Rain = 0
KMC5 251803Z 35019KT 16/11 A30 RMK A01 T01560112  RH  075%=      5-min Rain = 0
KMC5 251804Z 35017KT 16/11 A30 RMK A01 T01570113  RH  075%=      5-min Rain = 0
KMC5 251805Z 35018KT 16/12 A30 RMK A01 T01590116  RH  075%=      5-min Rain = 0
KMC5 251806Z 35016KT 16/12 A30 RMK A01 T01610115  RH  074%=      5-min Rain = 0
KMC5 251807Z 35022G28KT 16/11 A30 RMK A01 T01610114  RH  074%=      5-min Rain = 0
KMC5 251808Z 35018KT 16/11 A30 RMK A01 T01580112  RH  074%=      5-min Rain = 0
KMC5 251809Z 36020KT 16/11 A30 RMK A01 T01570113  RH  075%=      5-min Rain = 0
KMC5 251810Z 35020KT 16/11 A30 RMK A01 T01570112  RH  074%=      5-min Rain = 0
KMC5 251811Z 35023KT 16/11 A30 RMK A01 T01560112  RH  075%=      5-min Rain = 0
KMC5 251812Z 35020KT 15/11 A30 RMK A01 T01540112  RH  076%=      5-min Rain = 0
KMC5 251813Z 36019KT 15/11 A30 RMK A01 T01540112  RH  076%=      5-min Rain = 0
KMC5 251814Z 35021KT 15/11 A30 RMK A01 T01530111  RH  076%=      5-min Rain = 0
KMC5 251815Z 35019KT 15/11 A30 RMK A01 T01530112  RH  077%=      5-min Rain = 0
KMC5 251816Z 36019KT 15/11 A30 RMK A01 T01540113  RH  076%=      5-min Rain = 0
KMC5 251817Z 36018KT 16/11 A30 RMK A01 T01550114  RH  077%=      5-min Rain = 0
KMC5 251818Z 36020G25KT 16/11 A30 RMK A01 T01560114  RH  076%=      5-min Rain = 0
KMC5 251819Z 35021KT 16/11 A30 RMK A01 T01560113  RH  075%=      5-min Rain = 0
KMC5 251820Z 35019G25KT 16/11 A30 RMK A01 T01550113  RH  076%=      5-min Rain = 0
KMC5 251821Z 35020G25KT 16/11 A30 RMK A01 T01550113  RH  076%=      5-min Rain = 0
KMC5 251822Z 35019KT 16/11 A30 RMK A01 T01550114  RH  076%=      5-min Rain = 0
KMC5 251823Z 35023KT 16/11 A30 RMK A01 T01560112  RH  075%=      5-min Rain = 0
KMC5 251824Z 35024KT 15/11 A30 RMK A01 T01540111  RH  076%=      5-min Rain = 0
KMC5 251825Z 35020KT 15/11 A30 RMK A01 T01540113  RH  077%=      5-min Rain = 0
KMC5 251826Z 35019KT 16/11 A30 RMK A01 T01550112  RH  076%=      5-min Rain = 0
KMC5 251827Z 35021KT 16/11 A30 RMK A01 T01560113  RH  076%=      5-min Rain = 0
KMC5 251828Z 35021KT 16/11 A30 RMK A01 T01560113  RH  075%=      5-min Rain = 0
KMC5 251829Z 35022KT 16/11 A30 RMK A01 T01550113  RH  076%=      5-min Rain = 0
KMC5 251830Z 35022G27KT 15/11 A30 RMK A01 T01540112  RH  076%=      5-min Rain = 0
KMC5 251831Z 35020KT 15/11 A30 RMK A01 T01530112  RH  077%=      5-min Rain = 0
KMC5 251832Z 35021KT 15/11 A30 RMK A01 T01530112  RH  076%=      5-min Rain = 0
KMC5 251833Z 35023KT 15/11 A30 RMK A01 T01530112  RH  076%=      5-min Rain = 0
KMC5 251834Z 35022KT 15/11 A30 RMK A01 T01530112  RH  077%=      5-min Rain = 0
KMC5 251835Z 36018KT 15/11 A30 RMK A01 T01530112  RH  077%=      5-min Rain = 0
KMC5 251836Z 36020KT 16/12 A30 RMK A01 T01550115  RH  077%=      5-min Rain = 0
KMC5 251837Z 35023KT 16/11 A30 RMK A01 T01560112  RH  075%=      5-min Rain = 0
KMC5 251838Z 35020G25KT 15/11 A30 RMK A01 T01530111  RH  076%=      5-min Rain = 0
KMC5 251839Z 34019G25KT 15/11 A30 RMK A01 T01530112  RH  077%=      5-min Rain = 0
KMC5 251840Z 34017KT 16/12 A2999 RMK A01 T01560115  RH  077%=      5-min Rain = 0
KMC5 251841Z 35021G26KT 16/12 A2999 RMK A01 T01600116  RH  075%=      5-min Rain = 0
KMC5 251842Z 34018KT 16/11 A2999 RMK A01 T01580112  RH  074%=      5-min Rain = 0
KMC5 251843Z 34018KT 16/11 A2999 RMK A01 T01560114  RH  076%=      5-min Rain = 0
KMC5 251844Z 35022KT 16/12 A2999 RMK A01 T01570115  RH  076%=      5-min Rain = 0
KMC5 251845Z 35020KT 16/12 A2999 RMK A01 T01570115  RH  076%=      5-min Rain = 0
KMC5 251846Z 35023KT 16/11 A2999 RMK A01 T01580114  RH  075%=      5-min Rain = 0
KMC5 251847Z 35019KT 16/11 A2999 RMK A01 T01570112  RH  075%=      5-min Rain = 0
KMC5 251848Z 35017KT 16/12 A2999 RMK A01 T01570116  RH  076%=      5-min Rain = 0
KMC5 251849Z 35018KT 16/12 A2999 RMK A01 T01600116  RH  075%=      5-min Rain = 0
KMC5 251850Z 35020KT 16/12 A2999 RMK A01 T01600115  RH  075%=      5-min Rain = 0
KMC5 251851Z 35022KT 16/11 A2999 RMK A01 T01590112  RH  074%=      5-min Rain = 0
KMC5 251852Z 35022KT 16/11 A2999 RMK A01 T01570112  RH  074%=      5-min Rain = 0
KMC5 251853Z 35020KT 16/11 A2999 RMK A01 T01570113  RH  075%=      5-min Rain = 0
KMC5 251854Z 35019KT 16/11 A2999 RMK A01 T01580112  RH  074%=      5-min Rain = 0
KMC5 251855Z 35021KT 16/11 A2999 RMK A01 T01590113  RH  074%=      5-min Rain = 0
KMC5 251856Z 35020KT 16/11 A2999 RMK A01 T01590113  RH  074%=      5-min Rain = 0
KMC5 251857Z 36020KT 16/11 A2999 RMK A01 T01590114  RH  074%=      5-min Rain = 0
KMC5 251858Z 01020KT 16/11 A2999 RMK A01 T01600112  RH  073%=      5-min Rain = 0
KMC5 251859Z 00021KT 16/11 A2998 RMK A01 T01590112  RH  073%=      5-min Rain = 0
KMC5 251900Z 35021KT 16/11 A2999 RMK A01 T01600112  RH  073%=      5-min Rain = 0
KMC5 251901Z 35019KT 16/11 A2999 RMK A01 T01600113  RH  074%=      5-min Rain = 0
KMC5 251902Z 36021KT 16/12 A2999 RMK A01 T01610115  RH  074%=      5-min Rain = 0
KMC5 251903Z 35017KT 16/12 A2999 RMK A01 T01620115  RH  073%=      5-min Rain = 0
KMC5 251904Z 00021KT 16/12 A2998 RMK A01 T01640115  RH  072%=      5-min Rain = 0
KMC5 251905Z 00020KT 16/11 A2998 RMK A01 T01640113  RH  071%=      5-min Rain = 0
KMC5 251906Z 00020KT 16/11 A2999 RMK A01 T01620112  RH  072%=      5-min Rain = 0
KMC5 251907Z 35020KT 16/11 A2999 RMK A01 T01620114  RH  073%=      5-min Rain = 0
KMC5 251908Z 36021KT 16/11 A2999 RMK A01 T01640114  RH  072%=      5-min Rain = 0
KMC5 251909Z 35019G24KT 16/12 A2999 RMK A01 T01640115  RH  073%=      5-min Rain = 0
KMC5 251910Z 35020KT 16/11 A2998 RMK A01 T01640114  RH  072%=      5-min Rain = 0
KMC5 251911Z 35020KT 17/11 A2999 RMK A01 T01650113  RH  071%=      5-min Rain = 0
KMC5 251912Z 35019KT 16/11 A2999 RMK A01 T01640112  RH  072%=      5-min Rain = 0
KMC5 251913Z 35018KT 17/12 A2999 RMK A01 T01650116  RH  073%=      5-min Rain = 0
KMC5 251914Z 35019KT 17/12 A2999 RMK A01 T01670115  RH  071%=      5-min Rain = 0
KMC5 251915Z 36023KT 17/11 A2998 RMK A01 T01660114  RH  071%=      5-min Rain = 0
KMC5 251916Z 36019KT 17/11 A2999 RMK A01 T01650113  RH  071%=      5-min Rain = 0
KMC5 251917Z 00017KT 16/11 A2999 RMK A01 T01640113  RH  072%=      5-min Rain = 0
KMC5 251918Z 35017KT 17/12 A2999 RMK A01 T01660116  RH  073%=      5-min Rain = 0
KMC5 251919Z 35020KT 17/11 A2998 RMK A01 T01680114  RH  071%=      5-min Rain = 0
KMC5 251920Z 34017G22KT 17/12 A2998 RMK A01 T01660116  RH  072%=      5-min Rain = 0
KMC5 251921Z 35021KT 17/12 A2998 RMK A01 T01680116  RH  071%=      5-min Rain = 0
KMC5 251922Z 35022KT 17/11 A2998 RMK A01 T01690113  RH  069%=      5-min Rain = 0
KMC5 251923Z 36020KT 17/11 A2998 RMK A01 T01670113  RH  070%=      5-min Rain = 0
KMC5 251924Z 35018G23KT 17/11 A2998 RMK A01 T01660113  RH  071%=      5-min Rain = 0
KMC5 251925Z 36022G27KT 17/11 A2998 RMK A01 T01660113  RH  071%=      5-min Rain = 0
KMC5 251926Z 00022KT 17/11 A2998 RMK A01 T01660112  RH  071%=      5-min Rain = 0
KMC5 251927Z 01018KT 17/11 A2999 RMK A01 T01670114  RH  071%=      5-min Rain = 0
KMC5 251928Z 00017KT 17/11 A2998 RMK A01 T01680113  RH  070%=      5-min Rain = 0
KMC5 251929Z 00019KT 17/11 A2998 RMK A01 T01680114  RH  070%=      5-min Rain = 0
KMC5 251930Z 36017KT 17/12 A2998 RMK A01 T01690115  RH  070%=      5-min Rain = 0
KMC5 251931Z 01022KT 17/11 A2998 RMK A01 T01690114  RH  070%=      5-min Rain = 0
KMC5 251932Z 35023KT 17/11 A2999 RMK A01 T01680111  RH  069%=      5-min Rain = 0
KMC5 251933Z 36019KT 17/11 A2999 RMK A01 T01670114  RH  071%=      5-min Rain = 0
KMC5 251934Z 36021KT 17/11 A2999 RMK A01 T01690113  RH  070%=      5-min Rain = 0
KMC5 251935Z 36019KT 17/11 A2999 RMK A01 T01680114  RH  070%=      5-min Rain = 0
KMC5 251936Z 35020KT 17/11 A2999 RMK A01 T01680113  RH  070%=      5-min Rain = 0
KMC5 251937Z 36019KT 17/11 A2999 RMK A01 T01680113  RH  070%=      5-min Rain = 0
KMC5 251938Z 01018KT 17/11 A2998 RMK A01 T01670112  RH  070%=      5-min Rain = 0
KMC5 251939Z 36015KT 17/11 A2998 RMK A01 T01650113  RH  072%=      5-min Rain = 0
KMC5 251940Z 35017KT 17/12 A2998 RMK A01 T01670117  RH  072%=      5-min Rain = 0
KMC5 251941Z 34019KT 17/11 A2998 RMK A01 T01690113  RH  069%=      5-min Rain = 0
KMC5 251942Z 35020KT 17/11 A2998 RMK A01 T01680114  RH  070%=      5-min Rain = 0
KMC5 251943Z 35017KT 17/11 A2998 RMK A01 T01700113  RH  069%=      5-min Rain = 0
KMC5 251944Z 36019KT 17/11 A2998 RMK A01 T01710114  RH  069%=      5-min Rain = 0
KMC5 251945Z 35019KT 17/12 A2998 RMK A01 T01720115  RH  069%=      5-min Rain = 0
KMC5 251946Z 36016KT 17/12 A2998 RMK A01 T01720115  RH  069%=      5-min Rain = 0
KMC5 251947Z 36016KT 17/12 A2998 RMK A01 T01710116  RH  070%=      5-min Rain = 0
KMC5 251948Z 35018KT 17/12 A2998 RMK A01 T01720117  RH  070%=      5-min Rain = 0
KMC5 251949Z 35017KT 18/12 A2998 RMK A01 T01750116  RH  069%=      5-min Rain = 0
KMC5 251950Z 34017G22KT 18/12 A2998 RMK A01 T01760116  RH  068%=      5-min Rain = 0
KMC5 251951Z 35021KT 18/12 A2998 RMK A01 T01770115  RH  067%=      5-min Rain = 0
KMC5 251952Z 35020KT 18/12 A2998 RMK A01 T01760115  RH  067%=      5-min Rain = 0
KMC5 251953Z 00021KT 18/11 A2998 RMK A01 T01750113  RH  067%=      5-min Rain = 0
KMC5 251954Z 00017G22KT 17/11 A2998 RMK A01 T01740114  RH  068%=      5-min Rain = 0
KMC5 251955Z 00016KT 18/11 A2998 RMK A01 T01750114  RH  067%=      5-min Rain = 0
KMC5 251956Z 36016KT 18/12 A2998 RMK A01 T01750115  RH  068%=      5-min Rain = 0
KMC5 251957Z 00017KT 18/12 A2998 RMK A01 T01760115  RH  067%=      5-min Rain = 0
KMC5 251958Z 00017G24KT 18/12 A2998 RMK A01 T01760115  RH  068%=      5-min Rain = 0
KMC5 251959Z 00022KT 18/11 A2998 RMK A01 T01750111  RH  066%=      5-min Rain = 0
KMC5 252000Z 01020KT 17/11 A2998 RMK A01 T01740112  RH  067%=      5-min Rain = 0
KMC5 252001Z 00020KT 18/11 A2998 RMK A01 T01750112  RH  066%=      5-min Rain = 0
KMC5 252002Z 36017KT 17/11 A2998 RMK A01 T01740113  RH  067%=      5-min Rain = 0
KMC5 252003Z 00017KT 18/12 A2998 RMK A01 T01750115  RH  068%=      5-min Rain = 0
KMC5 252004Z 01019KT 18/11 A2998 RMK A01 T01780114  RH  066%=      5-min Rain = 0
KMC5 252005Z 35020KT 18/12 A2998 RMK A01 T01790115  RH  066%=      5-min Rain = 0
KMC5 252006Z 35015G22KT 18/11 A2998 RMK A01 T01780114  RH  066%=      5-min Rain = 0
KMC5 252007Z 01018KT 18/11 A2998 RMK A01 T01770114  RH  067%=      5-min Rain = 0
KMC5 252008Z 36018KT 18/11 A2998 RMK A01 T01760114  RH  067%=      5-min Rain = 0
KMC5 252009Z 00018KT 18/11 A2998 RMK A01 T01750112  RH  066%=      5-min Rain = 0
KMC5 252010Z 00018KT 18/11 A2998 RMK A01 T01750114  RH  067%=      5-min Rain = 0
KMC5 252011Z 01017KT 18/11 A2998 RMK A01 T01760113  RH  066%=      5-min Rain = 0
KMC5 252012Z 35017KT 18/12 A2998 RMK A01 T01770115  RH  067%=      5-min Rain = 0
KMC5 252013Z 36016KT 18/11 A2998 RMK A01 T01770112  RH  066%=      5-min Rain = 0
KMC5 252014Z 00018KT 18/11 A2998 RMK A01 T01750114  RH  067%=      5-min Rain = 0
KMC5 252015Z 35015KT 18/12 A2998 RMK A01 T01770116  RH  067%=      5-min Rain = 0
KMC5 252016Z 35019KT 18/12 A2998 RMK A01 T01810115  RH  065%=      5-min Rain = 0
KMC5 252017Z 35016G21KT 18/11 A2998 RMK A01 T01800113  RH  065%=      5-min Rain = 0
KMC5 252018Z 36013G22KT 18/12 A2998 RMK A01 T01780116  RH  067%=      5-min Rain = 0
KMC5 252019Z 36018KT 18/12 A2998 RMK A01 T01790115  RH  066%=      5-min Rain = 0
KMC5 252020Z 00015KT 18/11 A2998 RMK A01 T01790112  RH  065%=      5-min Rain = 0
KMC5 252021Z 35018KT 18/12 A2998 RMK A01 T01790116  RH  067%=      5-min Rain = 0
KMC5 252022Z 35019KT 18/11 A2998 RMK A01 T01790114  RH  066%=      5-min Rain = 0
KMC5 252023Z 35017KT 18/12 A2998 RMK A01 T01780115  RH  066%=      5-min Rain = 0
KMC5 252024Z 35017KT 18/12 A2998 RMK A01 T01790115  RH  066%=      5-min Rain = 0
KMC5 252025Z 35015KT 18/11 A2998 RMK A01 T01790113  RH  065%=      5-min Rain = 0
KMC5 252026Z 35017KT 18/11 A2998 RMK A01 T01780113  RH  066%=      5-min Rain = 0
KMC5 252027Z 35017KT 18/11 A2998 RMK A01 T01760113  RH  066%=      5-min Rain = 0
KMC5 252028Z 35021G26KT 18/11 A2998 RMK A01 T01750113  RH  067%=      5-min Rain = 0
KMC5 252029Z 01017KT 17/11 A2998 RMK A01 T01740113  RH  067%=      5-min Rain = 0
KMC5 252030Z 01018KT 17/11 A2998 RMK A01 T01740112  RH  067%=      5-min Rain = 0
KMC5 252031Z 01015KT 17/11 A2998 RMK A01 T01740113  RH  067%=      5-min Rain = 0
KMC5 252032Z 00013KT 18/11 A2998 RMK A01 T01750114  RH  067%=      5-min Rain = 0
KMC5 252033Z 36017G22KT 18/12 A2998 RMK A01 T01780115  RH  067%=      5-min Rain = 0
KMC5 252034Z 36016KT 18/11 A2998 RMK A01 T01780113  RH  065%=      5-min Rain = 0
KMC5 252035Z 36017KT 18/11 A2998 RMK A01 T01760112  RH  066%=      5-min Rain = 0
KMC5 252036Z 00015KT 18/11 A2998 RMK A01 T01760114  RH  067%=      5-min Rain = 0
KMC5 252037Z 36017KT 18/11 A2998 RMK A01 T01790113  RH  065%=      5-min Rain = 0
KMC5 252038Z 36017KT 18/12 A2998 RMK A01 T01810116  RH  065%=      5-min Rain = 0
KMC5 252039Z 35017KT 18/12 A2998 RMK A01 T01840115  RH  064%=      5-min Rain = 0
KMC5 252040Z 35019KT 19/11 A2998 RMK A01 T01860113  RH  062%=      5-min Rain = 0
KMC5 252041Z 35015KT 18/11 A2998 RMK A01 T01840113  RH  063%=      5-min Rain = 0
KMC5 252042Z 35017KT 18/12 A2998 RMK A01 T01830115  RH  064%=      5-min Rain = 0
KMC5 252043Z 35017KT 18/12 A2998 RMK A01 T01820116  RH  065%=      5-min Rain = 0
KMC5 252044Z 36017KT 18/11 A2998 RMK A01 T01820111  RH  063%=      5-min Rain = 0
KMC5 252045Z 36018KT 18/11 A2998 RMK A01 T01790112  RH  065%=      5-min Rain = 0
KMC5 252046Z 01018KT 18/11 A2998 RMK A01 T01770110  RH  065%=      5-min Rain = 0
KMC5 252047Z 01017KT 18/11 A2998 RMK A01 T01760111  RH  066%=      5-min Rain = 0
KMC5 252048Z 00013KT 18/11 A2998 RMK A01 T01760112  RH  066%=      5-min Rain = 0
KMC5 252049Z 35019KT 18/12 A2998 RMK A01 T01790115  RH  066%=      5-min Rain = 0
KMC5 252050Z 34019KT 18/11 A2998 RMK A01 T01790109  RH  064%=      5-min Rain = 0
KMC5 252051Z 36017KT 18/11 A2998 RMK A01 T01760110  RH  065%=      5-min Rain = 0
KMC5 252052Z 36019KT 18/11 A2998 RMK A01 T01760110  RH  065%=      5-min Rain = 0
KMC5 252053Z 35016KT 18/11 A2998 RMK A01 T01760110  RH  065%=      5-min Rain = 0
KMC5 252054Z 35016KT 18/11 A2998 RMK A01 T01770112  RH  065%=      5-min Rain = 0
KMC5 252055Z 36017KT 18/11 A2998 RMK A01 T01790112  RH  065%=      5-min Rain = 0
KMC5 252056Z 00019KT 18/11 A2998 RMK A01 T01790112  RH  065%=      5-min Rain = 0
KMC5 252057Z 35017KT 18/11 A2998 RMK A01 T01770110  RH  065%=      5-min Rain = 0
KMC5 252058Z 36015KT 18/11 A2998 RMK A01 T01760111  RH  066%=      5-min Rain = 0
KMC5 252059Z 35016KT 18/11 A2998 RMK A01 T01760111  RH  065%=      5-min Rain = 0
KMC5 252100Z 01014KT 18/11 A2998 RMK A01 T01760112  RH  066%=      5-min Rain = 0
KMC5 252101Z 00017KT 18/11 A2998 RMK A01 T01770111  RH  065%=      5-min Rain = 0
KMC5 252102Z 00017KT 18/11 A2998 RMK A01 T01770111  RH  065%=      5-min Rain = 0
KMC5 252103Z 35016KT 18/11 A2998 RMK A01 T01770111  RH  065%=      5-min Rain = 0
KMC5 252104Z 35014KT 18/11 A2998 RMK A01 T01780111  RH  065%=      5-min Rain = 0
KMC5 252105Z 34014G20KT 18/11 A2998 RMK A01 T01780112  RH  065%=      5-min Rain = 0
KMC5 252106Z 35018KT 18/11 A2998 RMK A01 T01790110  RH  064%=      5-min Rain = 0
KMC5 252107Z 35017KT 18/11 A2999 RMK A01 T01780107  RH  063%=      5-min Rain = 0
KMC5 252108Z 35017KT 18/11 A2998 RMK A01 T01760108  RH  064%=      5-min Rain = 0
KMC5 252109Z 35016KT 18/11 A2998 RMK A01 T01750108  RH  065%=      5-min Rain = 0
KMC5 252110Z 35016G21KT 18/11 A2999 RMK A01 T01750110  RH  066%=      5-min Rain = 0
KMC5 252111Z 36018KT 18/11 A2999 RMK A01 T01760111  RH  066%=      5-min Rain = 0
KMC5 252112Z 35016KT 18/11 A2999 RMK A01 T01760106  RH  064%=      5-min Rain = 0
KMC5 252113Z 35014KT 17/11 A2999 RMK A01 T01740107  RH  065%=      5-min Rain = 0
KMC5 252114Z 35014KT 17/11 A2999 RMK A01 T01740109  RH  066%=      5-min Rain = 0
KMC5 252115Z 35016KT 18/11 A2999 RMK A01 T01760111  RH  066%=      5-min Rain = 0
KMC5 252116Z 35018KT 18/11 A2999 RMK A01 T01770108  RH  064%=      5-min Rain = 0
KMC5 252117Z 35017KT 18/11 A2999 RMK A01 T01750108  RH  065%=      5-min Rain = 0
KMC5 252118Z 35017KT 17/11 A2999 RMK A01 T01740107  RH  065%=      5-min Rain = 0
KMC5 252119Z 35017KT 17/11 A2999 RMK A01 T01730107  RH  065%=      5-min Rain = 0
KMC5 252120Z 35016KT 17/11 A2999 RMK A01 T01730108  RH  066%=      5-min Rain = 0
KMC5 252121Z 00016G21KT 17/11 A2998 RMK A01 T01740108  RH  065%=      5-min Rain = 0
KMC5 252122Z 00017G22KT 17/11 A2998 RMK A01 T01740109  RH  066%=      5-min Rain = 0
KMC5 252123Z 36018KT 17/11 A2998 RMK A01 T01730108  RH  066%=      5-min Rain = 0
KMC5 252124Z 00016KT 17/11 A2999 RMK A01 T01730108  RH  066%=      5-min Rain = 0
KMC5 252125Z 00015KT 17/11 A2999 RMK A01 T01720108  RH  066%=      5-min Rain = 0
KMC5 252126Z 35013KT 17/11 A2999 RMK A01 T01720108  RH  066%=      5-min Rain = 0
KMC5 252127Z 35015KT 17/11 A2999 RMK A01 T01730110  RH  066%=      5-min Rain = 0
KMC5 252128Z 34016KT 17/11 A2999 RMK A01 T01740108  RH  065%=      5-min Rain = 0
KMC5 252129Z 35012KT 17/11 A2999 RMK A01 T01740110  RH  066%=      5-min Rain = 0
KMC5 252130Z 35015KT 18/11 A2999 RMK A01 T01750111  RH  066%=      5-min Rain = 0
KMC5 252131Z 36017KT 18/11 A2999 RMK A01 T01760108  RH  064%=      5-min Rain = 0
KMC5 252132Z 00016G21KT 18/11 A2999 RMK A01 T01760107  RH  064%=      5-min Rain = 0
KMC5 252133Z 00016KT 18/11 A2999 RMK A01 T01750107  RH  064%=      5-min Rain = 0
KMC5 252134Z 35015KT 18/11 A2999 RMK A01 T01750107  RH  064%=      5-min Rain = 0
KMC5 252135Z 35017KT 18/11 A2999 RMK A01 T01760108  RH  064%=      5-min Rain = 0
KMC5 252136Z 35017KT 18/11 A2999 RMK A01 T01750106  RH  064%=      5-min Rain = 0
KMC5 252137Z 35016KT 18/11 A2999 RMK A01 T01750106  RH  064%=      5-min Rain = 0
KMC5 252138Z 35020KT 17/11 A2999 RMK A01 T01740107  RH  065%=      5-min Rain = 0
KMC5 252139Z 36017KT 17/11 A2999 RMK A01 T01740107  RH  065%=      5-min Rain = 0
KMC5 252140Z 34017KT 17/11 A2999 RMK A01 T01730107  RH  065%=      5-min Rain = 0
KMC5 252141Z 35019KT 17/11 A2999 RMK A01 T01730105  RH  064%=      5-min Rain = 0
KMC5 252142Z 34017KT 17/11 A2999 RMK A01 T01730106  RH  065%=      5-min Rain = 0
KMC5 252143Z 34016KT 17/11 A2999 RMK A01 T01730106  RH  065%=      5-min Rain = 0
KMC5 252144Z 34015KT 17/11 A2999 RMK A01 T01740107  RH  065%=      5-min Rain = 0
KMC5 252145Z 33015KT 18/11 A2999 RMK A01 T01750108  RH  065%=      5-min Rain = 0
KMC5 252146Z 34016G22KT 18/11 A2999 RMK A01 T01760108  RH  064%=      5-min Rain = 0
KMC5 252147Z 01015KT 18/11 A2999 RMK A01 T01760108  RH  064%=      5-min Rain = 0
KMC5 252148Z 35015KT 18/11 A2999 RMK A01 T01780107  RH  063%=      5-min Rain = 0
KMC5 252149Z 36013KT 18/11 A2999 RMK A01 T01780109  RH  064%=      5-min Rain = 0
KMC5 252150Z 35015KT 18/11 A2999 RMK A01 T01790108  RH  063%=      5-min Rain = 0
KMC5 252151Z 34016KT 18/11 A2999 RMK A01 T01780107  RH  063%=      5-min Rain = 0
KMC5 252152Z 35014KT 18/11 A2999 RMK A01 T01760107  RH  064%=      5-min Rain = 0
KMC5 252153Z 35014KT 18/11 A2999 RMK A01 T01750107  RH  064%=      5-min Rain = 0
KMC5 252154Z 34012KT 18/11 A2999 RMK A01 T01750106  RH  064%=      5-min Rain = 0
KMC5 252155Z 34015KT 18/11 A2999 RMK A01 T01750108  RH  065%=      5-min Rain = 0
KMC5 252156Z 34012KT 18/11 A2999 RMK A01 T01750106  RH  064%=      5-min Rain = 0
KMC5 252157Z 35015KT 18/11 A2999 RMK A01 T01750108  RH  065%=      5-min Rain = 0
KMC5 252158Z 35016KT 18/11 A2998 RMK A01 T01760110  RH  065%=      5-min Rain = 0
KMC5 252159Z 34017KT 18/11 A2998 RMK A01 T01780107  RH  063%=      5-min Rain = 0
KMC5 252200Z 34014KT 18/11 A2998 RMK A01 T01780106  RH  063%=      5-min Rain = 0
KMC5 252201Z 35015KT 18/11 A2998 RMK A01 T01770106  RH  063%=      5-min Rain = 0
KMC5 252202Z 35015KT 18/11 A2998 RMK A01 T01770105  RH  063%=      5-min Rain = 0
KMC5 252203Z 34015KT 18/11 A2998 RMK A01 T01770105  RH  063%=      5-min Rain = 0
KMC5 252204Z 35014G19KT 18/11 A2998 RMK A01 T01770108  RH  064%=      5-min Rain = 0
KMC5 252205Z 35018KT 18/11 A2998 RMK A01 T01780105  RH  062%=      5-min Rain = 0
KMC5 252206Z 34016G21KT 18/10 A2998 RMK A01 T01770104  RH  062%=      5-min Rain = 0
KMC5 252207Z 35018KT 18/10 A2998 RMK A01 T01760104  RH  062%=      5-min Rain = 0
KMC5 252208Z 35018KT 18/11 A2998 RMK A01 T01760105  RH  063%=      5-min Rain = 0
KMC5 252209Z 35017KT 18/10 A2998 RMK A01 T01760103  RH  062%=      5-min Rain = 0
KMC5 252210Z 35016KT 18/11 A2999 RMK A01 T01760106  RH  064%=      5-min Rain = 0
KMC5 252211Z 35014KT 18/10 A2999 RMK A01 T01750104  RH  063%=      5-min Rain = 0
KMC5 252212Z 34014KT 18/11 A2999 RMK A01 T01750106  RH  064%=      5-min Rain = 0
KMC5 252213Z 35015KT 18/11 A2999 RMK A01 T01750106  RH  064%=      5-min Rain = 0
KMC5 252214Z 35015KT 18/11 A2999 RMK A01 T01760107  RH  064%=      5-min Rain = 0
KMC5 252215Z 36014KT 18/11 A2999 RMK A01 T01760108  RH  064%=      5-min Rain = 0
KMC5 252216Z 35016KT 18/11 A2999 RMK A01 T01760108  RH  064%=      5-min Rain = 0
KMC5 252217Z 35017KT 18/11 A2999 RMK A01 T01750106  RH  064%=      5-min Rain = 0
KMC5 252218Z 35017KT 17/10 A2999 RMK A01 T01740104  RH  064%=      5-min Rain = 0
KMC5 252219Z 35014KT 17/11 A2999 RMK A01 T01730106  RH  065%=      5-min Rain = 0
KMC5 252220Z 35016KT 17/10 A2999 RMK A01 T01730104  RH  064%=      5-min Rain = 0
KMC5 252221Z 35015KT 17/10 A2999 RMK A01 T01730103  RH  063%=      5-min Rain = 0
KMC5 252222Z 35015KT 17/10 A2999 RMK A01 T01730104  RH  064%=      5-min Rain = 0
KMC5 252223Z 35016KT 17/10 A2999 RMK A01 T01730103  RH  063%=      5-min Rain = 0
KMC5 252224Z 36014KT 17/10 A2999 RMK A01 T01730103  RH  064%=      5-min Rain = 0
KMC5 252225Z 36012G17KT 17/11 A2999 RMK A01 T01740105  RH  064%=      5-min Rain = 0
KMC5 252226Z 36016KT 18/10 A2999 RMK A01 T01750103  RH  063%=      5-min Rain = 0
KMC5 252227Z 35015KT 17/10 A2999 RMK A01 T01740103  RH  063%=      5-min Rain = 0
KMC5 252228Z 35016KT 17/10 A2999 RMK A01 T01740103  RH  063%=      5-min Rain = 0
KMC5 252229Z 35014KT 17/10 A2999 RMK A01 T01730104  RH  064%=      5-min Rain = 0
KMC5 252230Z 35014KT 17/10 A2998 RMK A01 T01730104  RH  064%=      5-min Rain = 0
KMC5 252231Z 36014KT 17/11 A2998 RMK A01 T01740107  RH  065%=      5-min Rain = 0
KMC5 252232Z 36014KT 18/11 A2998 RMK A01 T01750106  RH  064%=      5-min Rain = 0
KMC5 252233Z 00013G18KT 18/11 A2998 RMK A01 T01750108  RH  065%=      5-min Rain = 0
KMC5 252234Z 01015KT 18/11 A2998 RMK A01 T01750106  RH  064%=      5-min Rain = 0
KMC5 252235Z 00013KT 17/11 A2998 RMK A01 T01740106  RH  064%=      5-min Rain = 0
KMC5 252236Z 01015KT 17/11 A2998 RMK A01 T01740105  RH  064%=      5-min Rain = 0
KMC5 252237Z 36012KT 17/11 A2998 RMK A01 T01730106  RH  064%=      5-min Rain = 0
KMC5 252238Z 36013KT 17/11 A2998 RMK A01 T01740105  RH  064%=      5-min Rain = 0
KMC5 252239Z 01016KT 17/10 A2998 RMK A01 T01740104  RH  063%=      5-min Rain = 0
KMC5 252240Z 01015KT 17/10 A2998 RMK A01 T01740102  RH  063%=      5-min Rain = 0
KMC5 252241Z 00016KT 17/10 A2998 RMK A01 T01740102  RH  063%=      5-min Rain = 0
KMC5 252242Z 00015KT 17/10 A2998 RMK A01 T01740101  RH  062%=      5-min Rain = 0
KMC5 252243Z 00013KT 18/10 A2998 RMK A01 T01750102  RH  062%=      5-min Rain = 0
KMC5 252244Z 35012KT 18/10 A2998 RMK A01 T01760102  RH  062%=      5-min Rain = 0
KMC5 252245Z 35012KT 18/10 A2998 RMK A01 T01770104  RH  062%=      5-min Rain = 0
KMC5 252246Z 35013KT 18/10 A2998 RMK A01 T01780103  RH  061%=      5-min Rain = 0
KMC5 252247Z 35015KT 18/10 A2998 RMK A01 T01790103  RH  061%=      5-min Rain = 0
KMC5 252248Z 00016KT 18/10 A2998 RMK A01 T01780102  RH  061%=      5-min Rain = 0
KMC5 252249Z 00016KT 18/10 A2998 RMK A01 T01780102  RH  061%=      5-min Rain = 0
KMC5 252250Z 00016KT 18/10 A2998 RMK A01 T01780099  RH  060%=      5-min Rain = 0
KMC5 252251Z 00014KT 18/10 A2998 RMK A01 T01780101  RH  061%=      5-min Rain = 0
KMC5 252252Z 01012KT 18/10 A2998 RMK A01 T01790103  RH  061%=      5-min Rain = 0
KMC5 252253Z 00011KT 18/11 A2998 RMK A01 T01820106  RH  061%=      5-min Rain = 0
KMC5 252254Z 36014KT 18/11 A2998 RMK A01 T01840105  RH  060%=      5-min Rain = 0
KMC5 252255Z 35014KT 18/10 A2998 RMK A01 T01840103  RH  059%=      5-min Rain = 0
KMC5 252256Z 36014KT 18/10 A2998 RMK A01 T01830101  RH  059%=      5-min Rain = 0
KMC5 252257Z 36014KT 18/10 A2998 RMK A01 T01810101  RH  059%=      5-min Rain = 0
KMC5 252258Z 36015KT 18/10 A2998 RMK A01 T01810101  RH  060%=      5-min Rain = 0
KMC5 252259Z 00014KT 18/10 A2999 RMK A01 T01800101  RH  060%=      5-min Rain = 0
KMC5 252300Z 01015KT 18/10 A2998 RMK A01 T01800101  RH  060%=      5-min Rain = 0
KMC5 252301Z 01014KT 18/10 A2998 RMK A01 T01790100  RH  060%=      5-min Rain = 0
KMC5 252302Z 01015KT 18/10 A2999 RMK A01 T01780099  RH  060%=      5-min Rain = 0
KMC5 252303Z 35016KT 18/10 A2998 RMK A01 T01780100  RH  060%=      5-min Rain = 0
KMC5 252304Z 35016KT 18/10 A2998 RMK A01 T01780101  RH  060%=      5-min Rain = 0
KMC5 252305Z 35016KT 18/10 A2998 RMK A01 T01780100  RH  060%=      5-min Rain = 0
KMC5 252306Z 35015KT 18/10 A2998 RMK A01 T01780101  RH  061%=      5-min Rain = 0
KMC5 252307Z 36016KT 18/10 A2998 RMK A01 T01780100  RH  060%=      5-min Rain = 0
KMC5 252308Z 36014KT 18/10 A2998 RMK A01 T01780101  RH  060%=      5-min Rain = 0
KMC5 252309Z 35015KT 18/10 A2998 RMK A01 T01780101  RH  061%=      5-min Rain = 0
KMC5 252310Z 00013KT 18/10 A2998 RMK A01 T01770100  RH  061%=      5-min Rain = 0
KMC5 252311Z 00015KT 18/10 A2998 RMK A01 T01780101  RH  061%=      5-min Rain = 0
KMC5 252312Z 36015KT 18/10 A2998 RMK A01 T01780102  RH  061%=      5-min Rain = 0
KMC5 252313Z 35013KT 18/10 A2998 RMK A01 T01790103  RH  061%=      5-min Rain = 0
KMC5 252314Z 34015KT 18/10 A2998 RMK A01 T01790103  RH  061%=      5-min Rain = 0
KMC5 252315Z 35018KT 18/10 A2998 RMK A01 T01790101  RH  060%=      5-min Rain = 0
KMC5 252316Z 35016KT 18/10 A2998 RMK A01 T01790100  RH  060%=      5-min Rain = 0
KMC5 252317Z 35014KT 18/10 A2998 RMK A01 T01790103  RH  061%=      5-min Rain = 0
KMC5 252318Z 01013KT 18/10 A2998 RMK A01 T01790103  RH  061%=      5-min Rain = 0
KMC5 252319Z 36013KT 18/10 A2998 RMK A01 T01800103  RH  061%=      5-min Rain = 0
KMC5 252320Z 35014KT 18/10 A2998 RMK A01 T01800102  RH  061%=      5-min Rain = 0
KMC5 252321Z 35014KT 18/10 A2998 RMK A01 T01790102  RH  060%=      5-min Rain = 0
KMC5 252322Z 36012KT 18/10 A2998 RMK A01 T01790104  RH  061%=      5-min Rain = 0
KMC5 252323Z 00014KT 18/10 A2998 RMK A01 T01790103  RH  061%=      5-min Rain = 0
KMC5 252324Z 00015KT 18/10 A2998 RMK A01 T01790103  RH  061%=      5-min Rain = 0
KMC5 252325Z 00015KT 18/10 A2998 RMK A01 T01790104  RH  061%=      5-min Rain = 0
KMC5 252326Z 00012KT 18/10 A2998 RMK A01 T01790104  RH  062%=      5-min Rain = 0
KMC5 252327Z 00014KT 18/10 A2998 RMK A01 T01790104  RH  061%=      5-min Rain = 0
KMC5 252328Z 00012KT 18/10 A2998 RMK A01 T01780104  RH  062%=      5-min Rain = 0
KMC5 252329Z 00011KT 18/10 A2998 RMK A01 T01780104  RH  062%=      5-min Rain = 0
KMC5 252330Z 36012KT 18/11 A2998 RMK A01 T01780106  RH  063%=      5-min Rain = 0
KMC5 252331Z 36010KT 18/11 A2998 RMK A01 T01790105  RH  062%=      5-min Rain = 0
KMC5 252332Z 35012KT 18/11 A2998 RMK A01 T01790106  RH  062%=      5-min Rain = 0
KMC5 252333Z 35012KT 18/10 A2998 RMK A01 T01790103  RH  061%=      5-min Rain = 0
KMC5 252334Z 35013KT 18/11 A2998 RMK A01 T01800105  RH  061%=      5-min Rain = 0
KMC5 252335Z 36015KT 18/10 A2998 RMK A01 T01790104  RH  061%=      5-min Rain = 0
KMC5 252336Z 00015KT 18/10 A2998 RMK A01 T01780104  RH  062%=      5-min Rain = 0
KMC5 252337Z 01012KT 18/11 A2998 RMK A01 T01770105  RH  062%=      5-min Rain = 0
KMC5 252338Z 01013KT 18/10 A2998 RMK A01 T01770104  RH  063%=      5-min Rain = 0
KMC5 252339Z 01013KT 18/10 A2998 RMK A01 T01770103  RH  062%=      5-min Rain = 0
KMC5 252340Z 00012KT 18/11 A2998 RMK A01 T01770105  RH  063%=      5-min Rain = 0
KMC5 252341Z 00013KT 18/11 A2998 RMK A01 T01770106  RH  063%=      5-min Rain = 0
KMC5 252342Z 00014KT 18/10 A2998 RMK A01 T01780104  RH  062%=      5-min Rain = 0
KMC5 252343Z 00014KT 18/10 A2998 RMK A01 T01780104  RH  062%=      5-min Rain = 0
KMC5 252344Z 00015KT 18/10 A2998 RMK A01 T01770102  RH  062%=      5-min Rain = 0
KMC5 252345Z 00016KT 18/10 A2998 RMK A01 T01770101  RH  061%=      5-min Rain = 0
KMC5 252346Z 00014KT 18/10 A2998 RMK A01 T01770102  RH  061%=      5-min Rain = 0
KMC5 252347Z 35015KT 18/10 A2998 RMK A01 T01770102  RH  061%=      5-min Rain = 0
KMC5 252348Z 35015KT 18/10 A2998 RMK A01 T01770100  RH  061%=      5-min Rain = 0
KMC5 252349Z 35015KT 18/10 A2998 RMK A01 T01770101  RH  061%=      5-min Rain = 0
KMC5 252350Z 35015KT 18/10 A2998 RMK A01 T01770100  RH  060%=      5-min Rain = 0
KMC5 252351Z 35012KT 18/10 A2998 RMK A01 T01770101  RH  061%=      5-min Rain = 0
KMC5 252352Z 35012KT 18/10 A2998 RMK A01 T01770101  RH  061%=      5-min Rain = 0
KMC5 252353Z 36013KT 18/10 A2998 RMK A01 T01770101  RH  061%=      5-min Rain = 0
KMC5 252354Z 35013KT 18/10 A2998 RMK A01 T01770102  RH  062%=      5-min Rain = 0
KMC5 252355Z 35011KT 18/10 A2998 RMK A01 T01770103  RH  062%=      5-min Rain = 0
KMC5 252356Z 35010KT 18/11 A2998 RMK A01 T01770106  RH  063%=      5-min Rain = 0
KMC5 252357Z 35013KT 18/10 A2998 RMK A01 T01770104  RH  062%=      5-min Rain = 0
KMC5 252358Z 35015KT 18/10 A2998 RMK A01 T01770101  RH  061%=      5-min Rain = 0
KMC5 252359Z 35014KT 18/10 A2998 RMK A01 T01760100  RH  061%=      5-min Rain = 0
KMC5 260000Z 35014KT 18/10 A2998 RMK A01 T01760101  RH  061%=      5-min Rain = 0
KMC5 260001Z 35013KT 18/10 A2998 RMK A01 T01760101  RH  062%=      5-min Rain = 0
KMC5 260002Z 35014KT 18/10 A2998 RMK A01 T01760102  RH  062%=      5-min Rain = 0
KMC5 260003Z 35014KT 18/10 A2998 RMK A01 T01760100  RH  061%=      5-min Rain = 0
KMC5 260004Z 35013KT 18/10 A2998 RMK A01 T01750100  RH  061%=      5-min Rain = 0
KMC5 260005Z 34013KT 18/10 A2998 RMK A01 T01750102  RH  062%=      5-min Rain = 0
KMC5 260006Z 34013KT 18/10 A2998 RMK A01 T01750101  RH  062%=      5-min Rain = 0
KMC5 260007Z 34012KT 18/10 A2998 RMK A01 T01750102  RH  062%=      5-min Rain = 0
KMC5 260008Z 34012KT 18/10 A2998 RMK A01 T01750103  RH  063%=      5-min Rain = 0
KMC5 260009Z 35010KT 18/11 A2998 RMK A01 T01750105  RH  064%=      5-min Rain = 0
KMC5 260010Z 36010KT 18/10 A2998 RMK A01 T01750104  RH  063%=      5-min Rain = 0
KMC5 260011Z 36011KT 17/10 A2998 RMK A01 T01740103  RH  063%=      5-min Rain = 0
KMC5 260012Z 00014KT 17/10 A2998 RMK A01 T01740103  RH  063%=      5-min Rain = 0
KMC5 260013Z 01014KT 17/10 A2998 RMK A01 T01730101  RH  063%=      5-min Rain = 0
KMC5 260014Z 00013KT 17/10 A2998 RMK A01 T01730102  RH  063%=      5-min Rain = 0
KMC5 260015Z 00011KT 17/10 A2998 RMK A01 T01720102  RH  063%=      5-min Rain = 0
KMC5 260016Z 36012KT 17/10 A2998 RMK A01 T01720103  RH  064%=      5-min Rain = 0
KMC5 260017Z 00012KT 17/10 A2998 RMK A01 T01720104  RH  064%=      5-min Rain = 0
KMC5 260018Z 00013KT 17/10 A2998 RMK A01 T01710103  RH  064%=      5-min Rain = 0
KMC5 260019Z 01013KT 17/10 A2998 RMK A01 T01710102  RH  064%=      5-min Rain = 0
KMC5 260020Z 01012KT 17/10 A2998 RMK A01 T01710102  RH  064%=      5-min Rain = 0
KMC5 260021Z 01011KT 17/10 A2998 RMK A01 T01700103  RH  064%=      5-min Rain = 0
KMC5 260022Z 00012KT 17/10 A2998 RMK A01 T01700103  RH  064%=      5-min Rain = 0
KMC5 260023Z 00010KT 17/10 A2998 RMK A01 T01700103  RH  065%=      5-min Rain = 0
KMC5 260024Z 00011KT 17/10 A2998 RMK A01 T01700103  RH  065%=      5-min Rain = 0
KMC5 260025Z 00014KT 17/10 A2998 RMK A01 T01700102  RH  064%=      5-min Rain = 0
KMC5 260026Z 36012KT 17/10 A2998 RMK A01 T01700102  RH  064%=      5-min Rain = 0
KMC5 260027Z 36011KT 17/10 A2999 RMK A01 T01700103  RH  065%=      5-min Rain = 0
KMC5 260028Z 36012KT 17/10 A2999 RMK A01 T01690102  RH  065%=      5-min Rain = 0
KMC5 260029Z 00009KT 17/10 A2999 RMK A01 T01690104  RH  065%=      5-min Rain = 0
KMC5 260030Z 00010KT 17/11 A2999 RMK A01 T01690105  RH  066%=      5-min Rain = 0
KMC5 260031Z 36012KT 17/10 A2999 RMK A01 T01690104  RH  066%=      5-min Rain = 0
KMC5 260032Z 00012KT 17/10 A2999 RMK A01 T01690103  RH  065%=      5-min Rain = 0
KMC5 260033Z 01012KT 17/10 A2999 RMK A01 T01680101  RH  065%=      5-min Rain = 0
KMC5 260034Z 01011KT 17/10 A2999 RMK A01 T01690103  RH  065%=      5-min Rain = 0
KMC5 260035Z 01012KT 17/10 A2999 RMK A01 T01690102  RH  065%=      5-min Rain = 0
KMC5 260036Z 01010KT 17/10 A2999 RMK A01 T01700104  RH  065%=      5-min Rain = 0
KMC5 260037Z 01011KT 17/11 A2999 RMK A01 T01710105  RH  065%=      5-min Rain = 0
KMC5 260038Z 00011KT 17/10 A2999 RMK A01 T01710104  RH  064%=      5-min Rain = 0
KMC5 260039Z 00012KT 17/10 A2999 RMK A01 T01710104  RH  064%=      5-min Rain = 0
KMC5 260040Z 00010KT 17/10 A2999 RMK A01 T01700104  RH  065%=      5-min Rain = 0
KMC5 260041Z 01011KT 17/10 A2999 RMK A01 T01700104  RH  065%=      5-min Rain = 0
KMC5 260042Z 01011KT 17/10 A2999 RMK A01 T01690104  RH  065%=      5-min Rain = 0
KMC5 260043Z 01011KT 17/10 A2999 RMK A01 T01690104  RH  065%=      5-min Rain = 0
KMC5 260044Z 01011KT 17/10 A2999 RMK A01 T01680104  RH  066%=      5-min Rain = 0
KMC5 260045Z 01011KT 17/10 A2999 RMK A01 T01680104  RH  066%=      5-min Rain = 0
KMC5 260046Z 00010KT 17/10 A2999 RMK A01 T01670104  RH  066%=      5-min Rain = 0
KMC5 260047Z 01011KT 17/10 A2999 RMK A01 T01670104  RH  067%=      5-min Rain = 0
KMC5 260048Z 01010KT 17/10 A2999 RMK A01 T01660104  RH  067%=      5-min Rain = 0
KMC5 260049Z 36011KT 17/11 A2999 RMK A01 T01660105  RH  067%=      5-min Rain = 0
KMC5 260050Z 00012KT 17/10 A2999 RMK A01 T01660104  RH  067%=      5-min Rain = 0
KMC5 260051Z 01010KT 17/10 A2999 RMK A01 T01660104  RH  067%=      5-min Rain = 0
KMC5 260052Z 01011KT 17/10 A2999 RMK A01 T01650104  RH  067%=      5-min Rain = 0
KMC5 260053Z 00011KT 17/10 A2999 RMK A01 T01650103  RH  067%=      5-min Rain = 0
KMC5 260054Z 01012KT 17/10 A2999 RMK A01 T01650102  RH  066%=      5-min Rain = 0
KMC5 260055Z 01011KT 17/10 A2999 RMK A01 T01660103  RH  066%=      5-min Rain = 0
KMC5 260056Z 01011KT 17/10 A2999 RMK A01 T01660103  RH  066%=      5-min Rain = 0
KMC5 260057Z 01010KT 17/10 A2999 RMK A01 T01660104  RH  067%=      5-min Rain = 0
KMC5 260058Z 01010KT 17/11 A2999 RMK A01 T01660105  RH  067%=      5-min Rain = 0
KMC5 260059Z 01010KT 17/11 A2999 RMK A01 T01650106  RH  068%=      5-min Rain = 0
KMC5 260100Z 01010KT 17/11 A2999 RMK A01 T01650105  RH  068%=      5-min Rain = 0
KMC5 260101Z 01010KT 16/11 A2999 RMK A01 T01640105  RH  068%=      5-min Rain = 0
KMC5 260102Z 01012KT 16/11 A2999 RMK A01 T01640105  RH  068%=      5-min Rain = 0
KMC5 260103Z 01012KT 16/10 A2999 RMK A01 T01630103  RH  067%=      5-min Rain = 0
KMC5 260104Z 01013KT 16/10 A2999 RMK A01 T01640103  RH  067%=      5-min Rain = 0
KMC5 260105Z 01011KT 16/10 A2999 RMK A01 T01640104  RH  068%=      5-min Rain = 0
KMC5 260106Z 02011KT 16/10 A2999 RMK A01 T01630104  RH  068%=      5-min Rain = 0
KMC5 260107Z 01011KT 16/10 A2999 RMK A01 T01630104  RH  068%=      5-min Rain = 0
KMC5 260108Z 01010KT 16/11 A2999 RMK A01 T01630105  RH  068%=      5-min Rain = 0
KMC5 260109Z 01010KT 16/11 A2999 RMK A01 T01630105  RH  069%=      5-min Rain = 0
KMC5 260110Z 02010KT 16/11 A2999 RMK A01 T01620105  RH  069%=      5-min Rain = 0
KMC5 260111Z 01009KT 16/11 A2999 RMK A01 T01620105  RH  069%=      5-min Rain = 0
KMC5 260112Z 01010KT 16/11 A2999 RMK A01 T01620105  RH  069%=      5-min Rain = 0
KMC5 260113Z 01011KT 16/10 A2999 RMK A01 T01620104  RH  069%=      5-min Rain = 0
KMC5 260114Z 01012KT 16/10 A2999 RMK A01 T01610104  RH  069%=      5-min Rain = 0
KMC5 260115Z 02011KT 16/10 A2999 RMK A01 T01610104  RH  069%=      5-min Rain = 0
KMC5 260116Z 01011KT 16/11 A2999 RMK A01 T01610105  RH  069%=      5-min Rain = 0
KMC5 260117Z 01012KT 16/11 A2999 RMK A01 T01610105  RH  070%=      5-min Rain = 0
KMC5 260118Z 01011KT 16/11 A2999 RMK A01 T01600105  RH  070%=      5-min Rain = 0
KMC5 260119Z 01010KT 16/11 A2999 RMK A01 T01600106  RH  070%=      5-min Rain = 0
KMC5 260120Z 01011KT 16/11 A2999 RMK A01 T01590105  RH  070%=      5-min Rain = 0
KMC5 260121Z 01011KT 16/11 A2999 RMK A01 T01590105  RH  070%=      5-min Rain = 0
KMC5 260122Z 01011KT 16/11 A2999 RMK A01 T01580105  RH  070%=      5-min Rain = 0
KMC5 260123Z 01012KT 16/10 A2999 RMK A01 T01580104  RH  070%=      5-min Rain = 0
KMC5 260124Z 01013KT 16/10 A2999 RMK A01 T01580103  RH  070%=      5-min Rain = 0
KMC5 260125Z 01013KT 16/10 A2999 RMK A01 T01580102  RH  069%=      5-min Rain = 0
KMC5 260126Z 02010KT 16/10 A2999 RMK A01 T01580103  RH  070%=      5-min Rain = 0
KMC5 260127Z 02010KT 16/10 A2999 RMK A01 T01570104  RH  070%=      5-min Rain = 0
KMC5 260128Z 02012KT 16/10 A2999 RMK A01 T01570103  RH  070%=      5-min Rain = 0
KMC5 260129Z 02010KT 16/10 A2999 RMK A01 T01570103  RH  070%=      5-min Rain = 0
KMC5 260130Z 02009KT 16/10 A2999 RMK A01 T01560104  RH  071%=      5-min Rain = 0
KMC5 260131Z 02009KT 16/11 A30 RMK A01 T01560105  RH  072%=      5-min Rain = 0
KMC5 260132Z 02010KT 16/11 A30 RMK A01 T01550105  RH  072%=      5-min Rain = 0
KMC5 260133Z 02009KT 16/11 A30 RMK A01 T01550105  RH  072%=      5-min Rain = 0
KMC5 260134Z 02009KT 16/11 A30 RMK A01 T01550106  RH  073%=      5-min Rain = 0
KMC5 260135Z 02010KT 16/11 A30 RMK A01 T01550106  RH  073%=      5-min Rain = 0
KMC5 260136Z 02010KT 16/11 A30 RMK A01 T01550105  RH  072%=      5-min Rain = 0
KMC5 260137Z 02011KT 16/11 A30 RMK A01 T01550105  RH  072%=      5-min Rain = 0
KMC5 260138Z 02011KT 15/10 A30 RMK A01 T01540104  RH  072%=      5-min Rain = 0
KMC5 260139Z 02011KT 15/10 A30 RMK A01 T01540104  RH  072%=      5-min Rain = 0
KMC5 260140Z 02009KT 15/11 A30 RMK A01 T01540105  RH  072%=      5-min Rain = 0
KMC5 260141Z 02009KT 15/11 A30 RMK A01 T01540106  RH  073%=      5-min Rain = 0
KMC5 260142Z 02009KT 15/11 A30 RMK A01 T01530106  RH  073%=      5-min Rain = 0
KMC5 260143Z 01008KT 15/11 A30 RMK A01 T01530106  RH  073%=      5-min Rain = 0
KMC5 260144Z 01008KT 15/11 A30 RMK A01 T01530106  RH  074%=      5-min Rain = 0
KMC5 260145Z 02008KT 15/11 A30 RMK A01 T01520106  RH  074%=      5-min Rain = 0
KMC5 260146Z 02007KT 15/11 A30 RMK A01 T01520106  RH  074%=      5-min Rain = 0
KMC5 260147Z 02010KT 15/11 A30 RMK A01 T01520106  RH  074%=      5-min Rain = 0
KMC5 260148Z 02008KT 15/11 A30 RMK A01 T01520106  RH  074%=      5-min Rain = 0
KMC5 260149Z 01008KT 15/11 A30 RMK A01 T01510105  RH  074%=      5-min Rain = 0
KMC5 260150Z 02007KT 15/11 A30 RMK A01 T01510106  RH  074%=      5-min Rain = 0
KMC5 260151Z 02008KT 15/11 A30 RMK A01 T01510106  RH  074%=      5-min Rain = 0
KMC5 260152Z 01008KT 15/11 A30 RMK A01 T01510105  RH  074%=      5-min Rain = 0
KMC5 260153Z 01008KT 15/11 A30 RMK A01 T01510105  RH  074%=      5-min Rain = 0
KMC5 260154Z 01008KT 15/11 A3001 RMK A01 T01500106  RH  075%=      5-min Rain = 0
KMC5 260155Z 01010KT 15/10 A3001 RMK A01 T01500104  RH  074%=      5-min Rain = 0
KMC5 260156Z 02008KT 15/10 A3001 RMK A01 T01500104  RH  074%=      5-min Rain = 0
KMC5 260157Z 01007KT 15/11 A3001 RMK A01 T01500105  RH  074%=      5-min Rain = 0
KMC5 260158Z 01007KT 15/11 A3001 RMK A01 T01500106  RH  075%=      5-min Rain = 0
KMC5 260159Z 01008KT 15/11 A3001 RMK A01 T01490105  RH  075%=      5-min Rain = 0
KMC5 260200Z 01009KT 15/10 A3001 RMK A01 T01490104  RH  074%=      5-min Rain = 0
KMC5 260201Z 01008KT 15/10 A3001 RMK A01 T01490104  RH  074%=      5-min Rain = 0
KMC5 260202Z 01008KT 15/10 A3001 RMK A01 T01490104  RH  075%=      5-min Rain = 0
KMC5 260203Z 01009KT 15/11 A3001 RMK A01 T01490105  RH  075%=      5-min Rain = 0
KMC5 260204Z 01008KT 15/10 A3001 RMK A01 T01490104  RH  075%=      5-min Rain = 0
KMC5 260205Z 01008KT 15/10 A3001 RMK A01 T01490104  RH  075%=      5-min Rain = 0
KMC5 260206Z 01008KT 15/10 A3001 RMK A01 T01480104  RH  075%=      5-min Rain = 0
KMC5 260207Z 01008KT 15/10 A3001 RMK A01 T01480104  RH  075%=      5-min Rain = 0
KMC5 260208Z 01007KT 15/11 A3001 RMK A01 T01480105  RH  075%=      5-min Rain = 0
KMC5 260209Z 01007KT 15/11 A3001 RMK A01 T01480105  RH  075%=      5-min Rain = 0
KMC5 260210Z 01008KT 15/11 A3001 RMK A01 T01470105  RH  076%=      5-min Rain = 0
KMC5 260211Z 01009KT 15/10 A3001 RMK A01 T01460104  RH  075%=      5-min Rain = 0
KMC5 260212Z 01007KT 15/10 A3001 RMK A01 T01470104  RH  076%=      5-min Rain = 0
KMC5 260213Z 01007KT 15/11 A3001 RMK A01 T01460105  RH  076%=      5-min Rain = 0
KMC5 260214Z 01007KT 15/11 A3001 RMK A01 T01460105  RH  077%=      5-min Rain = 0
KMC5 260215Z 01008KT 15/10 A3001 RMK A01 T01450104  RH  076%=      5-min Rain = 0
KMC5 260216Z 01008KT 15/10 A3001 RMK A01 T01450104  RH  076%=      5-min Rain = 0
KMC5 260217Z 01007KT 15/10 A3001 RMK A01 T01450104  RH  076%=      5-min Rain = 0
KMC5 260218Z 01007KT 15/11 A3001 RMK A01 T01450105  RH  077%=      5-min Rain = 0
KMC5 260219Z 01007KT 14/11 A3001 RMK A01 T01440105  RH  077%=      5-min Rain = 0
KMC5 260220Z 01006KT 14/10 A3001 RMK A01 T01440104  RH  077%=      5-min Rain = 0
KMC5 260221Z 01007KT 14/11 A3001 RMK A01 T01440105  RH  077%=      5-min Rain = 0
KMC5 260222Z 01006KT 14/10 A3001 RMK A01 T01430104  RH  077%=      5-min Rain = 0
KMC5 260223Z 01007KT 14/10 A3001 RMK A01 T01430104  RH  077%=      5-min Rain = 0
KMC5 260224Z 01006KT 14/10 A3001 RMK A01 T01430104  RH  078%=      5-min Rain = 0
KMC5 260225Z 01007KT 14/10 A3001 RMK A01 T01430104  RH  078%=      5-min Rain = 0
KMC5 260226Z 01007KT 14/10 A3002 RMK A01 T01430104  RH  078%=      5-min Rain = 0
KMC5 260227Z 01006KT 14/10 A3002 RMK A01 T01420104  RH  078%=      5-min Rain = 0
KMC5 260228Z 01006KT 14/10 A3002 RMK A01 T01420104  RH  078%=      5-min Rain = 0
KMC5 260229Z 01007KT 14/10 A3002 RMK A01 T01410104  RH  078%=      5-min Rain = 0
KMC5 260230Z 01007KT 14/10 A3002 RMK A01 T01410104  RH  078%=      5-min Rain = 0
KMC5 260231Z 01007KT 14/10 A3002 RMK A01 T01410104  RH  078%=      5-min Rain = 0
KMC5 260232Z 01006KT 14/10 A3002 RMK A01 T01410104  RH  078%=      5-min Rain = 0
KMC5 260233Z 01007KT 14/10 A3002 RMK A01 T01410104  RH  078%=      5-min Rain = 0
KMC5 260234Z 01007KT 14/10 A3002 RMK A01 T01400104  RH  078%=      5-min Rain = 0
KMC5 260235Z 01007KT 14/10 A3002 RMK A01 T01400104  RH  079%=      5-min Rain = 0
KMC5 260236Z 01007KT 14/10 A3002 RMK A01 T01400104  RH  079%=      5-min Rain = 0
KMC5 260237Z 01007KT 14/10 A3002 RMK A01 T01390104  RH  079%=      5-min Rain = 0
KMC5 260238Z 01007KT 14/10 A3002 RMK A01 T01390104  RH  079%=      5-min Rain = 0
KMC5 260239Z 01007KT 14/10 A3002 RMK A01 T01390103  RH  079%=      5-min Rain = 0
KMC5 260240Z 01007KT 14/10 A3002 RMK A01 T01400104  RH  079%=      5-min Rain = 0
KMC5 260241Z 01007KT 14/10 A3002 RMK A01 T01390104  RH  079%=      5-min Rain = 0
KMC5 260242Z 00007KT 14/10 A3002 RMK A01 T01390104  RH  079%=      5-min Rain = 0
KMC5 260243Z 01007KT 14/10 A3002 RMK A01 T01380104  RH  079%=      5-min Rain = 0
KMC5 260244Z 01006KT 14/10 A3002 RMK A01 T01390104  RH  080%=      5-min Rain = 0
KMC5 260245Z 01006KT 14/10 A3002 RMK A01 T01380103  RH  080%=      5-min Rain = 0
KMC5 260246Z 01006KT 14/10 A3002 RMK A01 T01380103  RH  079%=      5-min Rain = 0
KMC5 260247Z 01006KT 14/10 A3002 RMK A01 T01380103  RH  080%=      5-min Rain = 0
KMC5 260248Z 01006KT 14/10 A3002 RMK A01 T01380103  RH  080%=      5-min Rain = 0
KMC5 260249Z 01007KT 14/10 A3002 RMK A01 T01370103  RH  080%=      5-min Rain = 0
KMC5 260250Z 00006KT 14/10 A3002 RMK A01 T01370103  RH  080%=      5-min Rain = 0
KMC5 260251Z 01006KT 14/10 A3002 RMK A01 T01370103  RH  080%=      5-min Rain = 0
KMC5 260252Z 01006KT 14/10 A3003 RMK A01 T01360103  RH  080%=      5-min Rain = 0
KMC5 260253Z 01006KT 14/10 A3003 RMK A01 T01360103  RH  080%=      5-min Rain = 0
KMC5 260254Z 01006KT 14/10 A3003 RMK A01 T01360103  RH  081%=      5-min Rain = 0
KMC5 260255Z 01006KT 14/10 A3003 RMK A01 T01350103  RH  081%=      5-min Rain = 0
KMC5 260256Z 01006KT 14/10 A3003 RMK A01 T01350103  RH  081%=      5-min Rain = 0
KMC5 260257Z 01007KT 14/10 A3003 RMK A01 T01350102  RH  081%=      5-min Rain = 0
KMC5 260258Z 01006KT 14/10 A3003 RMK A01 T01350102  RH  081%=      5-min Rain = 0
KMC5 260259Z 01006KT 14/10 A3003 RMK A01 T01350102  RH  081%=      5-min Rain = 0
KMC5 260300Z 01006KT 14/10 A3003 RMK A01 T01350103  RH  081%=      5-min Rain = 0
KMC5 260301Z 01006KT 13/10 A3003 RMK A01 T01340102  RH  081%=      5-min Rain = 0
KMC5 260302Z 01006KT 13/10 A3003 RMK A01 T01340103  RH  081%=      5-min Rain = 0
KMC5 260303Z 01006KT 13/10 A3003 RMK A01 T01330102  RH  081%=      5-min Rain = 0
KMC5 260304Z 01006KT 13/10 A3003 RMK A01 T01330102  RH  082%=      5-min Rain = 0
KMC5 260305Z 01006KT 13/10 A3003 RMK A01 T01330102  RH  082%=      5-min Rain = 0
KMC5 260306Z 00006KT 13/10 A3003 RMK A01 T01330102  RH  082%=      5-min Rain = 0
KMC5 260307Z 01007KT 13/10 A3003 RMK A01 T01320102  RH  082%=      5-min Rain = 0
KMC5 260308Z 01007KT 13/10 A3003 RMK A01 T01320102  RH  082%=      5-min Rain = 0
KMC5 260309Z 01006KT 13/10 A3003 RMK A01 T01320101  RH  082%=      5-min Rain = 0
KMC5 260310Z 01006KT 13/10 A3003 RMK A01 T01320101  RH  082%=      5-min Rain = 0
KMC5 260311Z 01006KT 13/10 A3003 RMK A01 T01320101  RH  082%=      5-min Rain = 0
KMC5 260312Z 01006KT 13/10 A3003 RMK A01 T01320101  RH  082%=      5-min Rain = 0
KMC5 260313Z 01007KT 13/10 A3003 RMK A01 T01310101  RH  082%=      5-min Rain = 0
KMC5 260314Z 00006KT 13/10 A3003 RMK A01 T01310101  RH  082%=      5-min Rain = 0
KMC5 260315Z 00006KT 13/10 A3003 RMK A01 T01310101  RH  082%=      5-min Rain = 0
KMC5 260316Z 00006KT 13/10 A3003 RMK A01 T01310101  RH  082%=      5-min Rain = 0
KMC5 260317Z 00006KT 13/10 A3004 RMK A01 T01300101  RH  083%=      5-min Rain = 0
KMC5 260318Z 00006KT 13/10 A3004 RMK A01 T01300101  RH  083%=      5-min Rain = 0
KMC5 260319Z 00006KT 13/10 A3004 RMK A01 T01300101  RH  083%=      5-min Rain = 0
KMC5 260320Z 01006KT 13/10 A3004 RMK A01 T01290101  RH  083%=      5-min Rain = 0
KMC5 260321Z 00007KT 13/10 A3004 RMK A01 T01290100  RH  083%=      5-min Rain = 0
KMC5 260322Z 01007KT 13/10 A3004 RMK A01 T01290100  RH  083%=      5-min Rain = 0
KMC5 260323Z 00007KT 13/10 A3004 RMK A01 T01290100  RH  083%=      5-min Rain = 0
KMC5 260324Z 00007KT 13/10 A3004 RMK A01 T01280100  RH  083%=      5-min Rain = 0
KMC5 260325Z 00007KT 13/10 A3004 RMK A01 T01280100  RH  083%=      5-min Rain = 0
KMC5 260326Z 00007KT 13/10 A3004 RMK A01 T01280100  RH  083%=      5-min Rain = 0
KMC5 260327Z 00007KT 13/10 A3004 RMK A01 T01280100  RH  083%=      5-min Rain = 0
KMC5 260328Z 00007KT 13/10 A3004 RMK A01 T01270100  RH  083%=      5-min Rain = 0
KMC5 260329Z 00007KT 13/10 A3004 RMK A01 T01270100  RH  083%=      5-min Rain = 0
KMC5 260330Z 00007KT 13/10 A3004 RMK A01 T01270100  RH  083%=      5-min Rain = 0
KMC5 260331Z 00007KT 13/10 A3004 RMK A01 T01270100  RH  083%=      5-min Rain = 0
KMC5 260332Z 00007KT 13/10 A3004 RMK A01 T01270100  RH  084%=      5-min Rain = 0
KMC5 260333Z 00007KT 13/10 A3004 RMK A01 T01270100  RH  084%=      5-min Rain = 0
KMC5 260334Z 00007KT 13/10 A3004 RMK A01 T01260100  RH  084%=      5-min Rain = 0
KMC5 260335Z 00007KT 13/10 A3004 RMK A01 T01260099  RH  084%=      5-min Rain = 0
KMC5 260336Z 00007KT 13/10 A3004 RMK A01 T01260099  RH  084%=      5-min Rain = 0
KMC5 260337Z 00007KT 13/10 A3004 RMK A01 T01260099  RH  084%=      5-min Rain = 0
KMC5 260338Z 00007KT 13/10 A3004 RMK A01 T01260099  RH  084%=      5-min Rain = 0
KMC5 260339Z 00007KT 13/10 A3004 RMK A01 T01260099  RH  084%=      5-min Rain = 0
KMC5 260340Z 00007KT 13/10 A3004 RMK A01 T01260099  RH  084%=      5-min Rain = 0
KMC5 260341Z 00007KT 13/10 A3004 RMK A01 T01250099  RH  084%=      5-min Rain = 0
KMC5 260342Z 36007KT 13/10 A3004 RMK A01 T01250099  RH  084%=      5-min Rain = 0
KMC5 260343Z 36007KT 13/10 A3004 RMK A01 T01250099  RH  084%=      5-min Rain = 0
KMC5 260344Z 36007KT 13/10 A3004 RMK A01 T01250099  RH  084%=      5-min Rain = 0
KMC5 260345Z 00008KT 13/10 A3004 RMK A01 T01250098  RH  084%=      5-min Rain = 0
KMC5 260346Z 00008KT 13/10 A3004 RMK A01 T01250098  RH  084%=      5-min Rain = 0
KMC5 260347Z 00008KT 13/10 A3004 RMK A01 T01250098  RH  084%=      5-min Rain = 0
KMC5 260348Z 00008KT 13/10 A3004 RMK A01 T01250099  RH  084%=      5-min Rain = 0
KMC5 260349Z 00008KT 13/10 A3004 RMK A01 T01250098  RH  084%=      5-min Rain = 0
KMC5 260350Z 00008KT 13/10 A3004 RMK A01 T01250098  RH  084%=      5-min Rain = 0
KMC5 260351Z 00007KT 12/10 A3004 RMK A01 T01240098  RH  084%=      5-min Rain = 0
KMC5 260352Z 00007KT 12/10 A3004 RMK A01 T01240098  RH  084%=      5-min Rain = 0
KMC5 260353Z 00007KT 12/10 A3004 RMK A01 T01240098  RH  084%=      5-min Rain = 0
KMC5 260354Z 00007KT 13/10 A3004 RMK A01 T01250098  RH  084%=      5-min Rain = 0
KMC5 260355Z 00007KT 12/10 A3004 RMK A01 T01240098  RH  084%=      5-min Rain = 0
KMC5 260356Z 00007KT 12/10 A3004 RMK A01 T01240098  RH  084%=      5-min Rain = 0
KMC5 260357Z 36007KT 12/10 A3004 RMK A01 T01240098  RH  084%=      5-min Rain = 0
KMC5 260358Z 36007KT 12/10 A3004 RMK A01 T01230097  RH  084%=      5-min Rain = 0
KMC5 260359Z 00007KT 12/10 A3004 RMK A01 T01230097  RH  084%=      5-min Rain = 0
KMC5 260400Z 00007KT 12/10 A3004 RMK A01 T01240098  RH  084%=      5-min Rain = 0
KMC5 260401Z 00007KT 12/10 A3004 RMK A01 T01230097  RH  084%=      5-min Rain = 0
KMC5 260402Z 00007KT 12/10 A3004 RMK A01 T01230097  RH  084%=      5-min Rain = 0
KMC5 260403Z 00007KT 12/10 A3004 RMK A01 T01230097  RH  084%=      5-min Rain = 0
KMC5 260404Z 00008KT 12/10 A3004 RMK A01 T01230097  RH  084%=      5-min Rain = 0
KMC5 260405Z 00008KT 12/10 A3004 RMK A01 T01220097  RH  085%=      5-min Rain = 0
KMC5 260406Z 00008KT 12/10 A3004 RMK A01 T01220097  RH  085%=      5-min Rain = 0
KMC5 260407Z 00008KT 12/10 A3004 RMK A01 T01220097  RH  085%=      5-min Rain = 0
KMC5 260408Z 00007KT 12/10 A3004 RMK A01 T01210097  RH  085%=      5-min Rain = 0
KMC5 260409Z 00008KT 12/10 A3004 RMK A01 T01210097  RH  085%=      5-min Rain = 0
KMC5 260410Z 00008KT 12/10 A3004 RMK A01 T01210097  RH  085%=      5-min Rain = 0
KMC5 260411Z 00008KT 12/10 A3004 RMK A01 T01210097  RH  085%=      5-min Rain = 0
KMC5 260412Z 36008KT 12/10 A3004 RMK A01 T01200096  RH  085%=      5-min Rain = 0
KMC5 260413Z 36007KT 12/10 A3004 RMK A01 T01200096  RH  085%=      5-min Rain = 0
KMC5 260414Z 00008KT 12/10 A3004 RMK A01 T01200096  RH  085%=      5-min Rain = 0
KMC5 260415Z 00008KT 12/10 A3004 RMK A01 T01200096  RH  085%=      5-min Rain = 0
KMC5 260416Z 36007KT 12/10 A3004 RMK A01 T01200096  RH  085%=      5-min Rain = 0
KMC5 260417Z 36007KT 12/10 A3004 RMK A01 T01200096  RH  085%=      5-min Rain = 0
KMC5 260418Z 35007KT 12/10 A3004 RMK A01 T01200096  RH  085%=      5-min Rain = 0
KMC5 260419Z 35007KT 12/10 A3004 RMK A01 T01200096  RH  085%=      5-min Rain = 0
KMC5 260420Z 35008KT 12/10 A3004 RMK A01 T01200096  RH  085%=      5-min Rain = 0
KMC5 260421Z 35008KT 12/10 A3004 RMK A01 T01200097  RH  086%=      5-min Rain = 0
KMC5 260422Z 35008KT 12/10 A3004 RMK A01 T01200096  RH  086%=      5-min Rain = 0
KMC5 260423Z 35008KT 12/10 A3004 RMK A01 T01200096  RH  086%=      5-min Rain = 0
KMC5 260424Z 35008KT 12/10 A3004 RMK A01 T01200097  RH  086%=      5-min Rain = 0
KMC5 260425Z 34008KT 12/10 A3004 RMK A01 T01190096  RH  086%=      5-min Rain = 0
KMC5 260426Z 35008KT 12/10 A3005 RMK A01 T01190096  RH  086%=      5-min Rain = 0
KMC5 260427Z 35008KT 12/10 A3005 RMK A01 T01190096  RH  086%=      5-min Rain = 0
KMC5 260428Z 34008KT 12/10 A3005 RMK A01 T01190096  RH  086%=      5-min Rain = 0
KMC5 260429Z 34008KT 12/10 A3005 RMK A01 T01200096  RH  085%=      5-min Rain = 0
KMC5 260430Z 34008KT 12/10 A3005 RMK A01 T01200096  RH  085%=      5-min Rain = 0
KMC5 260431Z 34008KT 12/10 A3005 RMK A01 T01200096  RH  085%=      5-min Rain = 0
KMC5 260432Z 34008KT 12/10 A3005 RMK A01 T01200096  RH  085%=      5-min Rain = 0
KMC5 260433Z 34008KT 12/10 A3005 RMK A01 T01200095  RH  085%=      5-min Rain = 0
KMC5 260434Z 34008KT 12/10 A3005 RMK A01 T01200096  RH  085%=      5-min Rain = 0
KMC5 260435Z 34008KT 12/10 A3005 RMK A01 T01200096  RH  085%=      5-min Rain = 0
KMC5 260436Z 34008KT 12/10 A3005 RMK A01 T01200096  RH  085%=      5-min Rain = 0
KMC5 260437Z 34008KT 12/10 A3004 RMK A01 T01200096  RH  085%=      5-min Rain = 0
KMC5 260438Z 34009KT 12/10 A3004 RMK A01 T01200096  RH  085%=      5-min Rain = 0
KMC5 260439Z 34009KT 12/10 A3004 RMK A01 T01200096  RH  085%=      5-min Rain = 0
KMC5 260440Z 34009KT 12/10 A3004 RMK A01 T01190095  RH  085%=      5-min Rain = 0
KMC5 260441Z 34009KT 12/10 A3004 RMK A01 T01190095  RH  085%=      5-min Rain = 0
KMC5 260442Z 34009KT 12/10 A3004 RMK A01 T01190095  RH  085%=      5-min Rain = 0
KMC5 260443Z 34009KT 12/10 A3004 RMK A01 T01190095  RH  085%=      5-min Rain = 0
KMC5 260444Z 34009KT 12/10 A3004 RMK A01 T01190095  RH  085%=      5-min Rain = 0
KMC5 260445Z 34009KT 12/10 A3004 RMK A01 T01190096  RH  086%=      5-min Rain = 0
KMC5 260446Z 34009KT 12/10 A3004 RMK A01 T01190096  RH  086%=      5-min Rain = 0
KMC5 260447Z 34009KT 12/10 A3004 RMK A01 T01190096  RH  086%=      5-min Rain = 0
KMC5 260448Z 34009KT 12/10 A3004 RMK A01 T01190096  RH  086%=      5-min Rain = 0
KMC5 260449Z 34009KT 12/10 A3004 RMK A01 T01190096  RH  086%=      5-min Rain = 0
KMC5 260450Z 34009KT 12/10 A3004 RMK A01 T01190096  RH  086%=      5-min Rain = 0
KMC5 260451Z 34009KT 12/10 A3004 RMK A01 T01190096  RH  086%=      5-min Rain = 0
KMC5 260452Z 33009KT 12/10 A3004 RMK A01 T01190096  RH  086%=      5-min Rain = 0
KMC5 260453Z 33009KT 12/10 A3004 RMK A01 T01190096  RH  086%=      5-min Rain = 0
KMC5 260454Z 33009KT 12/10 A3004 RMK A01 T01190096  RH  086%=      5-min Rain = 0
KMC5 260455Z 33009KT 12/10 A3004 RMK A01 T01190096  RH  086%=      5-min Rain = 0
KMC5 260456Z 33009KT 12/10 A3004 RMK A01 T01190096  RH  086%=      5-min Rain = 0
KMC5 260457Z 33009KT 12/10 A3004 RMK A01 T01180096  RH  086%=      5-min Rain = 0
KMC5 260458Z 33009KT 12/10 A3004 RMK A01 T01190097  RH  086%=      5-min Rain = 0
KMC5 260459Z 33009KT 12/10 A3004 RMK A01 T01180096  RH  086%=      5-min Rain = 0

Page generated in 0.1762 seconds.